Time,TemperatureF,DewpointF,PressureIn,WindDirection,WindDirectionDegrees,WindSpeedMPH,WindSpeedGustMPH,Humidity,HourlyPrecipIn,Conditions,Clouds,dailyrainin,SoftwareType,DateUTC
2013-07-31 00:00:00,62.3,59.0,30.09,SSE,156,0.0,0.0,89,0.00,,---,0.00,VWS V14.01,2013-07-31 04:00:00,
2013-07-31 00:01:00,62.3,59.0,30.09,SSE,156,0.0,0.0,89,0.00,,---,0.00,VWS V14.01,2013-07-31 04:01:00,
2013-07-31 00:06:00,62.1,58.8,30.09,SSE,156,0.0,0.0,89,0.00,,---,0.00,VWS V14.01,2013-07-31 04:06:00,
2013-07-31 00:07:00,62.1,59.1,30.09,SSE,156,0.0,0.0,90,0.00,,---,0.00,VWS V14.01,2013-07-31 04:07:00,
2013-07-31 00:11:00,62.1,59.1,30.09,SSE,156,0.0,0.0,90,0.00,,---,0.00,VWS V14.01,2013-07-31 04:11:00,
2013-07-31 00:12:00,62.1,59.1,30.09,SSE,156,0.0,0.0,90,0.00,,---,0.00,VWS V14.01,2013-07-31 04:12:00,
2013-07-31 00:16:00,62.0,59.0,30.09,SSE,156,0.0,0.0,90,0.00,,---,0.00,VWS V14.01,2013-07-31 04:16:00,
2013-07-31 00:17:00,62.0,59.0,30.09,SSE,156,0.0,0.0,90,0.00,,---,0.00,VWS V14.01,2013-07-31 04:17:00,
2013-07-31 00:21:00,62.0,59.0,30.10,SSE,156,0.0,0.0,90,0.00,,---,0.00,VWS V14.01,2013-07-31 04:21:00,
2013-07-31 00:22:00,62.0,59.0,30.10,SSE,156,0.0,0.0,90,0.00,,---,0.00,VWS V14.01,2013-07-31 04:22:00,
2013-07-31 00:26:00,61.8,58.8,30.10,SSE,156,0.0,0.0,90,0.00,,---,0.00,VWS V14.01,2013-07-31 04:26:00,
2013-07-31 00:27:00,61.8,58.8,30.10,SSE,156,0.0,0.0,90,0.00,,---,0.00,VWS V14.01,2013-07-31 04:27:00,
2013-07-31 00:31:00,61.8,58.8,30.10,SSE,156,0.0,0.0,90,0.00,,---,0.00,VWS V14.01,2013-07-31 04:31:00,
2013-07-31 00:32:00,61.8,58.8,30.10,SSE,156,0.0,0.0,90,0.00,,---,0.00,VWS V14.01,2013-07-31 04:32:00,
2013-07-31 00:36:00,61.6,58.6,30.10,SSE,156,0.0,0.0,90,0.00,,---,0.00,VWS V14.01,2013-07-31 04:36:00,
2013-07-31 00:37:00,61.6,58.6,30.10,SSE,156,0.0,0.0,90,0.00,,---,0.00,VWS V14.01,2013-07-31 04:37:00,
2013-07-31 00:41:00,61.6,58.6,30.10,SSE,156,0.0,0.0,90,0.00,,---,0.00,VWS V14.01,2013-07-31 04:41:00,
2013-07-31 00:42:00,61.6,58.6,30.10,SSE,156,0.0,0.0,90,0.00,,---,0.00,VWS V14.01,2013-07-31 04:42:00,
2013-07-31 00:47:00,61.6,58.6,30.10,SSE,156,0.0,0.0,90,0.00,,---,0.00,VWS V14.01,2013-07-31 04:47:00,
2013-07-31 00:48:00,61.6,58.6,30.10,SSE,156,0.0,0.0,90,0.00,,---,0.00,VWS V14.01,2013-07-31 04:48:00,
2013-07-31 00:52:00,61.8,58.8,30.10,SSE,156,0.0,0.0,90,0.00,,---,0.00,VWS V14.01,2013-07-31 04:52:00,
2013-07-31 00:53:00,61.8,59.2,30.10,SSE,156,0.0,0.0,91,0.00,,---,0.00,VWS V14.01,2013-07-31 04:53:00,
2013-07-31 00:57:00,61.8,59.2,30.10,SSE,156,0.0,0.0,91,0.00,,---,0.00,VWS V14.01,2013-07-31 04:57:00,
2013-07-31 00:58:00,61.8,59.2,30.10,SSE,156,0.0,0.0,91,0.00,,---,0.00,VWS V14.01,2013-07-31 04:58:00,
2013-07-31 01:02:00,61.8,59.2,30.10,SSE,156,0.0,0.0,91,0.00,,---,0.00,VWS V14.01,2013-07-31 05:02:00,
2013-07-31 01:03:00,61.8,59.2,30.09,SSE,156,0.0,0.0,91,0.00,,---,0.00,VWS V14.01,2013-07-31 05:03:00,
2013-07-31 01:07:00,61.8,59.2,30.09,SSE,156,0.0,0.0,91,0.00,,---,0.00,VWS V14.01,2013-07-31 05:07:00,
2013-07-31 01:08:00,61.8,59.2,30.09,SSE,156,0.0,0.0,91,0.00,,---,0.00,VWS V14.01,2013-07-31 05:08:00,
2013-07-31 01:12:00,61.8,59.2,30.09,SSE,156,0.0,0.0,91,0.00,,---,0.00,VWS V14.01,2013-07-31 05:12:00,
2013-07-31 01:13:00,61.8,59.2,30.09,SSE,156,0.0,0.0,91,0.00,,---,0.00,VWS V14.01,2013-07-31 05:13:00,
2013-07-31 01:17:00,61.8,59.2,30.09,SSE,156,0.0,0.0,91,0.00,,---,0.00,VWS V14.01,2013-07-31 05:17:00,
2013-07-31 01:18:00,61.8,59.2,30.10,SSE,156,0.0,0.0,91,0.00,,---,0.00,VWS V14.01,2013-07-31 05:18:00,
2013-07-31 01:22:00,61.8,59.2,30.10,SSE,156,0.0,0.0,91,0.00,,---,0.00,VWS V14.01,2013-07-31 05:22:00,
2013-07-31 01:23:00,61.8,59.2,30.10,SSE,156,0.0,0.0,91,0.00,,---,0.00,VWS V14.01,2013-07-31 05:23:00,
2013-07-31 01:27:00,61.8,59.2,30.10,SSE,156,0.0,0.0,91,0.00,,---,0.00,VWS V14.01,2013-07-31 05:27:00,
2013-07-31 01:28:00,61.8,59.2,30.10,SSE,156,0.0,0.0,91,0.00,,---,0.00,VWS V14.01,2013-07-31 05:28:00,
2013-07-31 01:32:00,61.8,59.2,30.10,SSE,156,0.0,0.0,91,0.00,,---,0.00,VWS V14.01,2013-07-31 05:32:00,
2013-07-31 01:33:00,61.8,59.5,30.10,SSE,156,0.0,0.0,92,0.00,,---,0.00,VWS V14.01,2013-07-31 05:33:00,
2013-07-31 01:37:00,62.0,59.7,30.10,SSE,156,0.0,0.0,92,0.00,,---,0.00,VWS V14.01,2013-07-31 05:37:00,
2013-07-31 01:38:00,62.0,59.7,30.10,SSE,156,0.0,0.0,92,0.00,,---,0.00,VWS V14.01,2013-07-31 05:38:00,
2013-07-31 01:42:00,62.0,59.7,30.10,SSE,156,0.0,0.0,92,0.00,,---,0.00,VWS V14.01,2013-07-31 05:42:00,
2013-07-31 01:43:00,62.0,59.7,30.10,SSE,156,0.0,0.0,92,0.00,,---,0.00,VWS V14.01,2013-07-31 05:43:00,
2013-07-31 01:44:00,62.0,59.7,30.10,SSE,156,0.0,0.0,92,0.00,,---,0.00,VWS V14.01,2013-07-31 05:44:00,
2013-07-31 01:47:00,61.8,59.5,30.09,SSE,156,0.0,0.0,92,0.00,,---,0.00,VWS V14.01,2013-07-31 05:47:00,
2013-07-31 01:48:00,61.8,59.5,30.09,SSE,156,0.0,0.0,92,0.00,,---,0.00,VWS V14.01,2013-07-31 05:48:00,
2013-07-31 01:49:00,61.8,59.5,30.09,SSE,156,0.0,0.0,92,0.00,,---,0.00,VWS V14.01,2013-07-31 05:49:00,
2013-07-31 01:52:00,61.8,59.5,30.09,SSE,156,0.0,0.0,92,0.00,,---,0.00,VWS V14.01,2013-07-31 05:52:00,
2013-07-31 01:53:00,61.8,59.5,30.09,SSE,156,0.0,0.0,92,0.00,,---,0.00,VWS V14.01,2013-07-31 05:53:00,
2013-07-31 01:54:00,61.8,59.5,30.09,SSE,156,0.0,0.0,92,0.00,,---,0.00,VWS V14.01,2013-07-31 05:54:00,
2013-07-31 01:57:00,61.8,59.5,30.09,SSE,156,0.0,0.0,92,0.00,,---,0.00,VWS V14.01,2013-07-31 05:57:00,
2013-07-31 01:58:00,61.8,59.5,30.09,SSE,156,0.0,0.0,92,0.00,,---,0.00,VWS V14.01,2013-07-31 05:58:00,
2013-07-31 01:59:00,61.6,59.3,30.09,SSE,156,0.0,0.0,92,0.00,,---,0.00,VWS V14.01,2013-07-31 05:59:00,
2013-07-31 02:02:00,61.6,59.3,30.09,SSE,156,0.0,0.0,92,0.00,,---,0.00,VWS V14.01,2013-07-31 06:02:00,
2013-07-31 02:03:00,61.6,59.3,30.09,SSE,156,0.0,0.0,92,0.00,,---,0.00,VWS V14.01,2013-07-31 06:03:00,
2013-07-31 02:04:00,61.6,59.3,30.09,SSE,156,0.0,0.0,92,0.00,,---,0.00,VWS V14.01,2013-07-31 06:04:00,
2013-07-31 02:08:00,61.6,59.3,30.09,SSE,156,0.0,0.0,92,0.00,,---,0.00,VWS V14.01,2013-07-31 06:08:00,
2013-07-31 02:09:00,61.5,59.2,30.09,SSE,156,0.0,0.0,92,0.00,,---,0.00,VWS V14.01,2013-07-31 06:09:00,
2013-07-31 02:13:00,61.5,59.2,30.09,SSE,156,0.0,0.0,92,0.00,,---,0.00,VWS V14.01,2013-07-31 06:13:00,
2013-07-31 02:14:00,61.5,59.2,30.09,SSE,156,0.0,0.0,92,0.00,,---,0.00,VWS V14.01,2013-07-31 06:14:00,
2013-07-31 02:18:00,61.3,59.0,30.09,SSE,156,0.0,0.0,92,0.00,,---,0.00,VWS V14.01,2013-07-31 06:18:00,
2013-07-31 02:19:00,61.3,59.0,30.09,SSE,156,0.0,0.0,92,0.00,,---,0.00,VWS V14.01,2013-07-31 06:19:00,
2013-07-31 02:23:00,61.3,59.0,30.09,SSE,156,0.0,0.0,92,0.00,,---,0.00,VWS V14.01,2013-07-31 06:23:00,
2013-07-31 02:24:00,61.3,59.0,30.09,SSE,156,0.0,0.0,92,0.00,,---,0.00,VWS V14.01,2013-07-31 06:24:00,
2013-07-31 02:25:00,61.3,59.0,30.09,SSE,156,0.0,0.0,92,0.00,,---,0.00,VWS V14.01,2013-07-31 06:25:00,
2013-07-31 02:28:00,61.3,59.0,30.09,SSE,156,0.0,0.0,92,0.00,,---,0.00,VWS V14.01,2013-07-31 06:28:00,
2013-07-31 02:29:00,61.3,59.0,30.09,SSE,156,0.0,0.0,92,0.00,,---,0.00,VWS V14.01,2013-07-31 06:29:00,
2013-07-31 02:30:00,61.3,59.0,30.09,SSE,156,0.0,0.0,92,0.00,,---,0.00,VWS V14.01,2013-07-31 06:30:00,
2013-07-31 02:33:00,61.2,58.9,30.09,SSE,156,0.0,0.0,92,0.00,,---,0.00,VWS V14.01,2013-07-31 06:33:00,
2013-07-31 02:34:00,61.2,58.9,30.09,SSE,156,0.0,0.0,92,0.00,,---,0.00,VWS V14.01,2013-07-31 06:34:00,
2013-07-31 02:35:00,61.2,58.9,30.09,SSE,156,0.0,0.0,92,0.00,,---,0.00,VWS V14.01,2013-07-31 06:35:00,
2013-07-31 02:38:00,61.2,58.9,30.09,SSE,156,0.0,0.0,92,0.00,,---,0.00,VWS V14.01,2013-07-31 06:38:00,
2013-07-31 02:39:00,61.2,58.9,30.09,SSE,156,0.0,0.0,92,0.00,,---,0.00,VWS V14.01,2013-07-31 06:39:00,
2013-07-31 02:40:00,61.0,58.7,30.09,SSE,156,0.0,0.0,92,0.00,,---,0.00,VWS V14.01,2013-07-31 06:40:00,
2013-07-31 02:43:00,61.0,58.7,30.09,SSE,156,0.0,0.0,92,0.00,,---,0.00,VWS V14.01,2013-07-31 06:43:00,
2013-07-31 02:44:00,61.0,58.7,30.09,SSE,156,0.0,0.0,92,0.00,,---,0.00,VWS V14.01,2013-07-31 06:44:00,
2013-07-31 02:45:00,61.0,58.7,30.09,SSE,156,0.0,0.0,92,0.00,,---,0.00,VWS V14.01,2013-07-31 06:45:00,
2013-07-31 02:48:00,60.9,58.6,30.09,SSE,156,0.0,0.0,92,0.00,,---,0.00,VWS V14.01,2013-07-31 06:48:00,
2013-07-31 02:49:00,60.9,58.6,30.09,SSE,156,0.0,0.0,92,0.00,,---,0.00,VWS V14.01,2013-07-31 06:49:00,
2013-07-31 02:50:00,60.9,58.6,30.09,SSE,156,0.0,0.0,92,0.00,,---,0.00,VWS V14.01,2013-07-31 06:50:00,
2013-07-31 02:53:00,60.9,58.6,30.09,SSE,156,0.0,0.0,92,0.00,,---,0.00,VWS V14.01,2013-07-31 06:53:00,
2013-07-31 02:54:00,60.9,58.6,30.09,SSE,156,0.0,0.0,92,0.00,,---,0.00,VWS V14.01,2013-07-31 06:54:00,
2013-07-31 02:55:00,60.9,58.6,30.09,SSE,156,0.0,0.0,92,0.00,,---,0.00,VWS V14.01,2013-07-31 06:55:00,
2013-07-31 02:58:00,60.7,58.4,30.09,SSE,156,0.0,0.0,92,0.00,,---,0.00,VWS V14.01,2013-07-31 06:58:00,
2013-07-31 02:59:00,60.7,58.4,30.09,SSE,156,0.0,1.0,92,0.00,,---,0.00,VWS V14.01,2013-07-31 06:59:00,
2013-07-31 03:00:00,60.7,58.4,30.09,SSE,156,0.0,0.0,92,0.00,,---,0.00,VWS V14.01,2013-07-31 07:00:00,
2013-07-31 03:03:00,60.7,58.4,30.09,SSE,156,0.0,0.0,92,0.00,,---,0.00,VWS V14.01,2013-07-31 07:03:00,
2013-07-31 03:04:00,60.7,58.4,30.09,SSE,156,0.0,0.0,92,0.00,,---,0.00,VWS V14.01,2013-07-31 07:04:00,
2013-07-31 03:05:00,60.7,58.4,30.09,SSE,156,0.0,0.0,92,0.00,,---,0.00,VWS V14.01,2013-07-31 07:05:00,
2013-07-31 03:08:00,60.7,58.7,30.09,SSE,156,0.0,0.0,93,0.00,,---,0.00,VWS V14.01,2013-07-31 07:08:00,
2013-07-31 03:09:00,60.7,58.7,30.09,SSE,156,0.0,0.0,93,0.00,,---,0.00,VWS V14.01,2013-07-31 07:09:00,
2013-07-31 03:10:00,60.7,58.7,30.09,SSE,156,0.0,0.0,93,0.00,,---,0.00,VWS V14.01,2013-07-31 07:10:00,
2013-07-31 03:13:00,60.7,58.7,30.09,SSE,156,0.0,0.0,93,0.00,,---,0.00,VWS V14.01,2013-07-31 07:13:00,
2013-07-31 03:14:00,60.7,58.7,30.09,SSE,156,0.0,0.0,93,0.00,,---,0.00,VWS V14.01,2013-07-31 07:14:00,
2013-07-31 03:15:00,60.7,58.7,30.09,SSE,156,0.0,0.0,93,0.00,,---,0.00,VWS V14.01,2013-07-31 07:15:00,
2013-07-31 03:18:00,60.7,58.7,30.09,SSE,156,0.0,0.0,93,0.00,,---,0.00,VWS V14.01,2013-07-31 07:18:00,
2013-07-31 03:19:00,60.7,58.7,30.09,SSE,156,0.0,0.0,93,0.00,,---,0.00,VWS V14.01,2013-07-31 07:19:00,
2013-07-31 03:20:00,60.7,58.7,30.09,SSE,156,0.0,0.0,93,0.00,,---,0.00,VWS V14.01,2013-07-31 07:20:00,
2013-07-31 03:24:00,60.7,59.0,30.09,SSE,156,0.0,0.0,94,0.00,,---,0.00,VWS V14.01,2013-07-31 07:24:00,
2013-07-31 03:25:00,60.7,59.0,30.09,SSE,156,0.0,0.0,94,0.00,,---,0.00,VWS V14.01,2013-07-31 07:25:00,
2013-07-31 03:29:00,60.7,59.0,30.09,SSE,156,0.0,0.0,94,0.00,,---,0.00,VWS V14.01,2013-07-31 07:29:00,
2013-07-31 03:30:00,60.7,59.0,30.09,SSE,156,0.0,0.0,94,0.00,,---,0.00,VWS V14.01,2013-07-31 07:30:00,
2013-07-31 03:34:00,60.7,59.0,30.09,SSE,156,0.0,0.0,94,0.00,,---,0.00,VWS V14.01,2013-07-31 07:34:00,
2013-07-31 03:35:00,60.7,59.0,30.09,SSE,156,0.0,0.0,94,0.00,,---,0.00,VWS V14.01,2013-07-31 07:35:00,
2013-07-31 03:39:00,60.7,59.0,30.09,SSE,156,0.0,0.0,94,0.00,,---,0.00,VWS V14.01,2013-07-31 07:39:00,
2013-07-31 03:40:00,60.7,59.0,30.09,SSE,156,0.0,0.0,94,0.00,,---,0.00,VWS V14.01,2013-07-31 07:40:00,
2013-07-31 03:44:00,60.7,59.0,30.09,SSE,156,0.0,0.0,94,0.00,,---,0.00,VWS V14.01,2013-07-31 07:44:00,
2013-07-31 03:45:00,60.7,59.0,30.09,SSE,156,0.0,0.0,94,0.00,,---,0.00,VWS V14.01,2013-07-31 07:45:00,
2013-07-31 03:49:00,60.5,58.8,30.09,SSE,156,0.0,0.0,94,0.00,,---,0.00,VWS V14.01,2013-07-31 07:49:00,
2013-07-31 03:50:00,60.5,58.8,30.09,SSE,156,0.0,0.0,94,0.00,,---,0.00,VWS V14.01,2013-07-31 07:50:00,
2013-07-31 03:51:00,60.5,58.8,30.09,SSE,156,0.0,0.0,94,0.00,,---,0.00,VWS V14.01,2013-07-31 07:51:00,
2013-07-31 03:54:00,60.5,58.8,30.09,SSE,156,0.0,0.0,94,0.00,,---,0.00,VWS V14.01,2013-07-31 07:54:00,
2013-07-31 03:55:00,60.5,58.8,30.09,SSE,156,0.0,0.0,94,0.00,,---,0.00,VWS V14.01,2013-07-31 07:55:00,
2013-07-31 03:56:00,60.5,58.8,30.09,SSE,156,0.0,0.0,94,0.00,,---,0.00,VWS V14.01,2013-07-31 07:56:00,
2013-07-31 03:59:00,60.5,58.8,30.09,SSE,156,0.0,0.0,94,0.00,,---,0.00,VWS V14.01,2013-07-31 07:59:00,
2013-07-31 04:00:00,60.4,58.7,30.09,SSE,156,0.0,0.0,94,0.00,,---,0.00,VWS V14.01,2013-07-31 08:00:00,
2013-07-31 04:01:00,60.4,58.7,30.09,SSE,156,0.0,0.0,94,0.00,,---,0.00,VWS V14.01,2013-07-31 08:01:00,
2013-07-31 04:04:00,60.4,58.7,30.09,SSE,156,0.0,0.0,94,0.00,,---,0.00,VWS V14.01,2013-07-31 08:04:00,
2013-07-31 04:05:00,60.4,58.7,30.09,SSE,156,0.0,0.0,94,0.00,,---,0.00,VWS V14.01,2013-07-31 08:05:00,
2013-07-31 04:06:00,60.4,58.7,30.09,SSE,156,0.0,0.0,94,0.00,,---,0.00,VWS V14.01,2013-07-31 08:06:00,
2013-07-31 04:09:00,60.4,58.7,30.09,SSE,156,0.0,0.0,94,0.00,,---,0.00,VWS V14.01,2013-07-31 08:09:00,
2013-07-31 04:10:00,60.4,58.7,30.09,SSE,156,0.0,0.0,94,0.00,,---,0.00,VWS V14.01,2013-07-31 08:10:00,
2013-07-31 04:11:00,60.2,58.5,30.09,SSE,156,0.0,0.0,94,0.00,,---,0.00,VWS V14.01,2013-07-31 08:11:00,
2013-07-31 04:14:00,60.2,58.5,30.09,SSE,156,0.0,0.0,94,0.00,,---,0.00,VWS V14.01,2013-07-31 08:14:00,
2013-07-31 04:15:00,60.4,58.7,30.09,SSE,156,0.0,0.0,94,0.00,,---,0.00,VWS V14.01,2013-07-31 08:15:00,
2013-07-31 04:16:00,60.4,59.0,30.09,SSE,156,0.0,0.0,95,0.00,,---,0.00,VWS V14.01,2013-07-31 08:16:00,
2013-07-31 04:19:00,60.4,59.0,30.09,SSE,156,0.0,0.0,95,0.00,,---,0.00,VWS V14.01,2013-07-31 08:19:00,
2013-07-31 04:20:00,60.5,59.1,30.09,SSE,156,0.0,0.0,95,0.00,,---,0.00,VWS V14.01,2013-07-31 08:20:00,
2013-07-31 04:21:00,60.5,59.1,30.09,SSE,156,0.0,0.0,95,0.00,,---,0.00,VWS V14.01,2013-07-31 08:21:00,
2013-07-31 04:22:00,60.5,59.1,30.09,SSE,156,0.0,0.0,95,0.00,,---,0.00,VWS V14.01,2013-07-31 08:22:00,
2013-07-31 04:24:00,60.5,59.1,30.09,SSE,156,0.0,0.0,95,0.00,,---,0.00,VWS V14.01,2013-07-31 08:24:00,
2013-07-31 04:25:00,60.5,59.1,30.09,SSE,156,0.0,0.0,95,0.00,,---,0.00,VWS V14.01,2013-07-31 08:25:00,
2013-07-31 04:26:00,60.5,59.1,30.09,SSE,156,0.0,0.0,95,0.00,,---,0.00,VWS V14.01,2013-07-31 08:26:00,
2013-07-31 04:27:00,60.5,59.1,30.09,SSE,156,0.0,0.0,95,0.00,,---,0.00,VWS V14.01,2013-07-31 08:27:00,
2013-07-31 04:29:00,60.5,59.1,30.09,SSE,156,0.0,0.0,95,0.00,,---,0.00,VWS V14.01,2013-07-31 08:29:00,
2013-07-31 04:30:00,60.5,59.1,30.09,SSE,156,0.0,0.0,95,0.00,,---,0.00,VWS V14.01,2013-07-31 08:30:00,
2013-07-31 04:31:00,60.5,59.1,30.09,SSE,156,0.0,0.0,95,0.00,,---,0.00,VWS V14.01,2013-07-31 08:31:00,
2013-07-31 04:32:00,60.4,59.0,30.09,SSE,156,0.0,0.0,95,0.00,,---,0.00,VWS V14.01,2013-07-31 08:32:00,
2013-07-31 04:34:00,60.4,59.0,30.09,SSE,156,0.0,0.0,95,0.00,,---,0.00,VWS V14.01,2013-07-31 08:34:00,
2013-07-31 04:35:00,60.4,59.0,30.09,SSE,156,0.0,0.0,95,0.00,,---,0.00,VWS V14.01,2013-07-31 08:35:00,
2013-07-31 04:36:00,60.4,59.0,30.09,SSE,156,0.0,0.0,95,0.00,,---,0.00,VWS V14.01,2013-07-31 08:36:00,
2013-07-31 04:37:00,60.4,59.0,30.09,SSE,156,0.0,0.0,95,0.00,,---,0.00,VWS V14.01,2013-07-31 08:37:00,
2013-07-31 04:39:00,60.2,58.8,30.09,SSE,156,0.0,0.0,95,0.00,,---,0.00,VWS V14.01,2013-07-31 08:39:00,
2013-07-31 04:40:00,60.2,58.8,30.09,SSE,156,0.0,0.0,95,0.00,,---,0.00,VWS V14.01,2013-07-31 08:40:00,
2013-07-31 04:41:00,60.2,58.8,30.09,SSE,156,0.0,0.0,95,0.00,,---,0.00,VWS V14.01,2013-07-31 08:41:00,
2013-07-31 04:43:00,60.2,58.8,30.09,SSE,156,0.0,0.0,95,0.00,,---,0.00,VWS V14.01,2013-07-31 08:43:00,
2013-07-31 04:44:00,60.2,58.8,30.09,SSE,156,0.0,0.0,95,0.00,,---,0.00,VWS V14.01,2013-07-31 08:44:00,
2013-07-31 04:45:00,60.1,58.7,30.09,SSE,156,0.0,0.0,95,0.00,,---,0.00,VWS V14.01,2013-07-31 08:45:00,
2013-07-31 04:46:00,60.1,58.7,30.09,SSE,156,0.0,0.0,95,0.00,,---,0.00,VWS V14.01,2013-07-31 08:46:00,
2013-07-31 04:48:00,60.1,58.7,30.09,SSE,156,0.0,0.0,95,0.00,,---,0.00,VWS V14.01,2013-07-31 08:48:00,
2013-07-31 04:49:00,60.1,58.7,30.09,SSE,156,0.0,0.0,95,0.00,,---,0.00,VWS V14.01,2013-07-31 08:49:00,
2013-07-31 04:50:00,60.1,58.7,30.09,SSE,156,0.0,0.0,95,0.00,,---,0.00,VWS V14.01,2013-07-31 08:50:00,
2013-07-31 04:52:00,60.1,58.7,30.09,SSE,156,0.0,0.0,95,0.00,,---,0.00,VWS V14.01,2013-07-31 08:52:00,
2013-07-31 04:53:00,59.9,58.5,30.09,SSE,156,0.0,0.0,95,0.00,,---,0.00,VWS V14.01,2013-07-31 08:53:00,
2013-07-31 04:54:00,59.9,58.5,30.09,SSE,156,0.0,0.0,95,0.00,,---,0.00,VWS V14.01,2013-07-31 08:54:00,
2013-07-31 04:55:00,59.9,58.5,30.09,SSE,156,0.0,0.0,95,0.00,,---,0.00,VWS V14.01,2013-07-31 08:55:00,
2013-07-31 04:56:00,59.9,58.5,30.09,SSE,156,0.0,0.0,95,0.00,,---,0.00,VWS V14.01,2013-07-31 08:56:00,
2013-07-31 04:57:00,59.9,58.5,30.09,SSE,156,0.0,0.0,95,0.00,,---,0.00,VWS V14.01,2013-07-31 08:57:00,
2013-07-31 04:58:00,59.9,58.5,30.09,SSE,156,0.0,0.0,95,0.00,,---,0.00,VWS V14.01,2013-07-31 08:58:00,
2013-07-31 04:59:00,59.9,58.5,30.09,SSE,156,0.0,0.0,95,0.00,,---,0.00,VWS V14.01,2013-07-31 08:59:00,
2013-07-31 05:00:00,59.8,58.1,30.09,SSE,156,0.0,0.0,94,0.00,,---,0.00,VWS V14.01,2013-07-31 09:00:00,
2013-07-31 05:01:00,59.8,58.1,30.09,SSE,156,0.0,0.0,94,0.00,,---,0.00,VWS V14.01,2013-07-31 09:01:00,
2013-07-31 05:02:00,59.8,58.1,30.09,SSE,156,0.0,0.0,94,0.00,,---,0.00,VWS V14.01,2013-07-31 09:02:00,
2013-07-31 05:03:00,59.8,58.4,30.09,SSE,156,0.0,0.0,95,0.00,,---,0.00,VWS V14.01,2013-07-31 09:03:00,
2013-07-31 05:04:00,59.8,58.4,30.09,SSE,156,0.0,0.0,95,0.00,,---,0.00,VWS V14.01,2013-07-31 09:04:00,
2013-07-31 05:05:00,59.8,58.4,30.09,SSE,156,0.0,0.0,95,0.00,,---,0.00,VWS V14.01,2013-07-31 09:05:00,
2013-07-31 05:06:00,59.8,58.4,30.09,SSE,156,0.0,0.0,95,0.00,,---,0.00,VWS V14.01,2013-07-31 09:06:00,
2013-07-31 05:07:00,59.6,58.2,30.09,SSE,156,0.0,0.0,95,0.00,,---,0.00,VWS V14.01,2013-07-31 09:07:00,
2013-07-31 05:08:00,59.6,58.2,30.09,SSE,156,0.0,0.0,95,0.00,,---,0.00,VWS V14.01,2013-07-31 09:08:00,
2013-07-31 05:09:00,59.6,57.9,30.09,SSE,156,0.0,0.0,94,0.00,,---,0.00,VWS V14.01,2013-07-31 09:09:00,
2013-07-31 05:10:00,59.6,57.9,30.09,SSE,156,0.0,0.0,94,0.00,,---,0.00,VWS V14.01,2013-07-31 09:10:00,
2013-07-31 05:11:00,59.6,57.9,30.09,SSE,156,0.0,0.0,94,0.00,,---,0.00,VWS V14.01,2013-07-31 09:11:00,
2013-07-31 05:12:00,59.6,57.9,30.09,SSE,156,0.0,0.0,94,0.00,,---,0.00,VWS V14.01,2013-07-31 09:12:00,
2013-07-31 05:13:00,59.6,57.9,30.09,SSE,156,0.0,0.0,94,0.00,,---,0.00,VWS V14.01,2013-07-31 09:13:00,
2013-07-31 05:14:00,59.5,57.8,30.09,SSE,156,0.0,0.0,94,0.00,,---,0.00,VWS V14.01,2013-07-31 09:14:00,
2013-07-31 05:15:00,59.5,57.8,30.09,SSE,156,0.0,0.0,94,0.00,,---,0.00,VWS V14.01,2013-07-31 09:15:00,
2013-07-31 05:16:00,59.5,57.8,30.09,SSE,156,0.0,0.0,94,0.00,,---,0.00,VWS V14.01,2013-07-31 09:16:00,
2013-07-31 05:17:00,59.5,57.8,30.09,SSE,156,0.0,0.0,94,0.00,,---,0.00,VWS V14.01,2013-07-31 09:17:00,
2013-07-31 05:18:00,59.5,57.8,30.09,SSE,156,0.0,0.0,94,0.00,,---,0.00,VWS V14.01,2013-07-31 09:18:00,
2013-07-31 05:20:00,59.5,57.8,30.09,SSE,156,0.0,0.0,94,0.00,,---,0.00,VWS V14.01,2013-07-31 09:20:00,
2013-07-31 05:21:00,59.5,57.8,30.09,SSE,156,0.0,0.0,94,0.00,,---,0.00,VWS V14.01,2013-07-31 09:21:00,
2013-07-31 05:22:00,59.5,57.8,30.09,SSE,156,0.0,0.0,94,0.00,,---,0.00,VWS V14.01,2013-07-31 09:22:00,
2013-07-31 05:23:00,59.3,57.6,30.09,SSE,156,0.0,0.0,94,0.00,,---,0.00,VWS V14.01,2013-07-31 09:23:00,
2013-07-31 05:25:00,59.3,57.6,30.09,SSE,156,0.0,0.0,94,0.00,,---,0.00,VWS V14.01,2013-07-31 09:25:00,
2013-07-31 05:26:00,59.3,57.6,30.09,SSE,156,0.0,0.0,94,0.00,,---,0.00,VWS V14.01,2013-07-31 09:26:00,
2013-07-31 05:27:00,59.3,57.6,30.09,SSE,156,0.0,0.0,94,0.00,,---,0.00,VWS V14.01,2013-07-31 09:27:00,
2013-07-31 05:28:00,59.3,57.6,30.09,SSE,156,0.0,0.0,94,0.00,,---,0.00,VWS V14.01,2013-07-31 09:28:00,
2013-07-31 05:30:00,59.3,57.6,30.09,SSE,156,0.0,0.0,94,0.00,,---,0.00,VWS V14.01,2013-07-31 09:30:00,
2013-07-31 05:31:00,59.3,57.6,30.09,SSE,156,0.0,0.0,94,0.00,,---,0.00,VWS V14.01,2013-07-31 09:31:00,
2013-07-31 05:33:00,59.3,57.6,30.09,SSE,156,0.0,0.0,94,0.00,,---,0.00,VWS V14.01,2013-07-31 09:33:00,
2013-07-31 05:35:00,59.2,57.5,30.09,SSE,156,0.0,0.0,94,0.00,,---,0.00,VWS V14.01,2013-07-31 09:35:00,
2013-07-31 05:36:00,59.2,57.5,30.09,SSE,156,0.0,0.0,94,0.00,,---,0.00,VWS V14.01,2013-07-31 09:36:00,
2013-07-31 05:38:00,59.2,57.5,30.09,SSE,156,0.0,0.0,94,0.00,,---,0.00,VWS V14.01,2013-07-31 09:38:00,
2013-07-31 05:40:00,59.2,57.5,30.09,SSE,156,0.0,0.0,94,0.00,,---,0.00,VWS V14.01,2013-07-31 09:40:00,
2013-07-31 05:41:00,59.2,57.5,30.09,SSE,156,0.0,0.0,94,0.00,,---,0.00,VWS V14.01,2013-07-31 09:41:00,
2013-07-31 05:43:00,59.2,57.5,30.09,SSE,156,0.0,0.0,94,0.00,,---,0.00,VWS V14.01,2013-07-31 09:43:00,
2013-07-31 05:45:00,59.0,57.3,30.09,SSE,156,0.0,0.0,94,0.00,,---,0.00,VWS V14.01,2013-07-31 09:45:00,
2013-07-31 05:46:00,59.0,57.3,30.09,SSE,156,0.0,0.0,94,0.00,,---,0.00,VWS V14.01,2013-07-31 09:46:00,
2013-07-31 05:48:00,59.0,57.3,30.09,SSE,156,0.0,0.0,94,0.00,,---,0.00,VWS V14.01,2013-07-31 09:48:00,
2013-07-31 05:50:00,59.0,57.3,30.09,SSE,156,0.0,0.0,94,0.00,,---,0.00,VWS V14.01,2013-07-31 09:50:00,
2013-07-31 05:52:00,59.0,57.3,30.09,SSE,156,0.0,0.0,94,0.00,,---,0.00,VWS V14.01,2013-07-31 09:52:00,
2013-07-31 05:53:00,59.0,57.3,30.09,SSE,156,0.0,0.0,94,0.00,,---,0.00,VWS V14.01,2013-07-31 09:53:00,
2013-07-31 05:55:00,58.9,57.2,30.09,SSE,156,0.0,0.0,94,0.00,,---,0.00,VWS V14.01,2013-07-31 09:55:00,
2013-07-31 05:57:00,58.9,57.2,30.09,SSE,156,0.0,0.0,94,0.00,,---,0.00,VWS V14.01,2013-07-31 09:57:00,
2013-07-31 05:58:00,58.9,57.2,30.09,SSE,156,0.0,0.0,94,0.00,,---,0.00,VWS V14.01,2013-07-31 09:58:00,
2013-07-31 06:01:00,58.9,57.2,30.09,SSE,156,0.0,0.0,94,0.00,,---,0.00,VWS V14.01,2013-07-31 10:01:00,
2013-07-31 06:02:00,58.9,57.2,30.09,SSE,156,0.0,0.0,94,0.00,,---,0.00,VWS V14.01,2013-07-31 10:02:00,
2013-07-31 06:03:00,58.9,57.2,30.09,SSE,156,0.0,0.0,94,0.00,,---,0.00,VWS V14.01,2013-07-31 10:03:00,
2013-07-31 06:06:00,58.9,57.2,30.09,SSE,156,0.0,0.0,94,0.00,,---,0.00,VWS V14.01,2013-07-31 10:06:00,
2013-07-31 06:07:00,58.9,57.5,30.09,SSE,156,0.0,0.0,95,0.00,,---,0.00,VWS V14.01,2013-07-31 10:07:00,
2013-07-31 06:08:00,58.9,57.5,30.09,SSE,156,0.0,0.0,95,0.00,,---,0.00,VWS V14.01,2013-07-31 10:08:00,
2013-07-31 06:09:00,58.9,57.5,30.09,SSE,156,0.0,0.0,95,0.00,,---,0.00,VWS V14.01,2013-07-31 10:09:00,
2013-07-31 06:11:00,58.9,57.5,30.09,SSE,156,0.0,0.0,95,0.00,,---,0.00,VWS V14.01,2013-07-31 10:11:00,
2013-07-31 06:12:00,58.9,57.5,30.09,SSE,156,0.0,0.0,95,0.00,,---,0.00,VWS V14.01,2013-07-31 10:12:00,
2013-07-31 06:13:00,58.9,57.5,30.09,SSE,156,0.0,0.0,95,0.00,,---,0.00,VWS V14.01,2013-07-31 10:13:00,
2013-07-31 06:14:00,58.9,57.5,30.09,SSE,156,0.0,0.0,95,0.00,,---,0.00,VWS V14.01,2013-07-31 10:14:00,
2013-07-31 06:16:00,58.9,57.5,30.09,SSE,156,0.0,0.0,95,0.00,,---,0.00,VWS V14.01,2013-07-31 10:16:00,
2013-07-31 06:17:00,58.9,57.5,30.09,SSE,156,0.0,0.0,95,0.00,,---,0.00,VWS V14.01,2013-07-31 10:17:00,
2013-07-31 06:18:00,58.9,57.5,30.09,SSE,156,0.0,0.0,95,0.00,,---,0.00,VWS V14.01,2013-07-31 10:18:00,
2013-07-31 06:19:00,58.9,57.5,30.09,SSE,156,0.0,0.0,95,0.00,,---,0.00,VWS V14.01,2013-07-31 10:19:00,
2013-07-31 06:21:00,58.9,57.5,30.09,SSE,156,0.0,0.0,95,0.00,,---,0.00,VWS V14.01,2013-07-31 10:21:00,
2013-07-31 06:22:00,58.9,57.5,30.09,SSE,156,0.0,0.0,95,0.00,,---,0.00,VWS V14.01,2013-07-31 10:22:00,
2013-07-31 06:23:00,58.7,57.3,30.09,SSE,156,0.0,0.0,95,0.00,,---,0.00,VWS V14.01,2013-07-31 10:23:00,
2013-07-31 06:24:00,58.7,57.3,30.09,SSE,156,0.0,0.0,95,0.00,,---,0.00,VWS V14.01,2013-07-31 10:24:00,
2013-07-31 06:27:00,58.7,57.3,30.09,SSE,156,0.0,0.0,95,0.00,,---,0.00,VWS V14.01,2013-07-31 10:27:00,
2013-07-31 06:28:00,58.7,57.3,30.09,SSE,156,0.0,0.0,95,0.00,,---,0.00,VWS V14.01,2013-07-31 10:28:00,
2013-07-31 06:29:00,58.7,57.3,30.09,SSE,156,0.0,0.0,95,0.00,,---,0.00,VWS V14.01,2013-07-31 10:29:00,
2013-07-31 06:32:00,58.7,57.3,30.09,SSE,156,0.0,0.0,95,0.00,,---,0.00,VWS V14.01,2013-07-31 10:32:00,
2013-07-31 06:33:00,58.7,57.3,30.09,SSE,156,0.0,0.0,95,0.00,,---,0.00,VWS V14.01,2013-07-31 10:33:00,
2013-07-31 06:34:00,58.7,57.3,30.09,SSE,156,0.0,0.0,95,0.00,,---,0.00,VWS V14.01,2013-07-31 10:34:00,
2013-07-31 06:37:00,58.7,57.3,30.09,SSE,156,0.0,0.0,95,0.00,,---,0.00,VWS V14.01,2013-07-31 10:37:00,
2013-07-31 06:38:00,58.7,57.3,30.09,SSE,156,0.0,0.0,95,0.00,,---,0.00,VWS V14.01,2013-07-31 10:38:00,
2013-07-31 06:39:00,58.7,57.3,30.09,SSE,156,0.0,0.0,95,0.00,,---,0.00,VWS V14.01,2013-07-31 10:39:00,
2013-07-31 06:42:00,58.7,57.3,30.09,SSE,156,0.0,0.0,95,0.00,,---,0.00,VWS V14.01,2013-07-31 10:42:00,
2013-07-31 06:43:00,58.7,57.3,30.09,SSE,156,0.0,0.0,95,0.00,,---,0.00,VWS V14.01,2013-07-31 10:43:00,
2013-07-31 06:45:00,58.7,57.3,30.09,SSE,156,0.0,0.0,95,0.00,,---,0.00,VWS V14.01,2013-07-31 10:45:00,
2013-07-31 06:47:00,58.7,57.3,30.09,SSE,156,0.0,0.0,95,0.00,,---,0.00,VWS V14.01,2013-07-31 10:47:00,
2013-07-31 06:48:00,58.7,57.3,30.09,SSE,156,0.0,0.0,95,0.00,,---,0.00,VWS V14.01,2013-07-31 10:48:00,
2013-07-31 06:50:00,58.7,57.3,30.09,SSE,156,0.0,0.0,95,0.00,,---,0.00,VWS V14.01,2013-07-31 10:50:00,
2013-07-31 06:52:00,58.7,57.3,30.09,SSE,156,0.0,0.0,95,0.00,,---,0.00,VWS V14.01,2013-07-31 10:52:00,
2013-07-31 06:53:00,58.6,57.2,30.09,SSE,156,0.0,0.0,95,0.00,,---,0.00,VWS V14.01,2013-07-31 10:53:00,
2013-07-31 06:55:00,58.6,57.2,30.09,SSE,156,0.0,0.0,95,0.00,,---,0.00,VWS V14.01,2013-07-31 10:55:00,
2013-07-31 06:57:00,58.6,57.2,30.09,SSE,156,0.0,0.0,95,0.00,,---,0.00,VWS V14.01,2013-07-31 10:57:00,
2013-07-31 06:58:00,58.6,57.2,30.09,SSE,156,0.0,0.0,95,0.00,,---,0.00,VWS V14.01,2013-07-31 10:58:00,
2013-07-31 07:00:00,58.6,57.2,30.09,SSE,156,0.0,0.0,95,0.00,,---,0.00,VWS V14.01,2013-07-31 11:00:00,
2013-07-31 07:02:00,58.7,57.3,30.09,SSE,156,0.0,0.0,95,0.00,,---,0.00,VWS V14.01,2013-07-31 11:02:00,
2013-07-31 07:03:00,58.7,57.3,30.09,SSE,156,0.0,0.0,95,0.00,,---,0.00,VWS V14.01,2013-07-31 11:03:00,
2013-07-31 07:05:00,58.7,57.3,30.09,SSE,156,0.0,0.0,95,0.00,,---,0.00,VWS V14.01,2013-07-31 11:05:00,
2013-07-31 07:07:00,58.7,57.3,30.09,SSE,156,0.0,0.0,95,0.00,,---,0.00,VWS V14.01,2013-07-31 11:07:00,
2013-07-31 07:08:00,58.7,57.3,30.09,SSE,156,0.0,0.0,95,0.00,,---,0.00,VWS V14.01,2013-07-31 11:08:00,
2013-07-31 07:09:00,58.7,57.3,30.09,SSE,156,0.0,0.0,95,0.00,,---,0.00,VWS V14.01,2013-07-31 11:09:00,
2013-07-31 07:10:00,58.7,57.3,30.09,SSE,156,0.0,0.0,95,0.00,,---,0.00,VWS V14.01,2013-07-31 11:10:00,
2013-07-31 07:12:00,58.9,57.8,30.09,SSE,156,0.0,0.0,96,0.00,,---,0.00,VWS V14.01,2013-07-31 11:12:00,
2013-07-31 07:13:00,58.9,57.8,30.09,SSE,156,0.0,0.0,96,0.00,,---,0.00,VWS V14.01,2013-07-31 11:13:00,
2013-07-31 07:14:00,58.9,57.8,30.09,SSE,156,0.0,0.0,96,0.00,,---,0.00,VWS V14.01,2013-07-31 11:14:00,
2013-07-31 07:15:00,58.9,57.8,30.09,SSE,156,0.0,0.0,96,0.00,,---,0.00,VWS V14.01,2013-07-31 11:15:00,
2013-07-31 07:18:00,59.0,57.9,30.10,SSE,156,0.0,1.0,96,0.00,,---,0.00,VWS V14.01,2013-07-31 11:18:00,
2013-07-31 07:19:00,59.0,57.9,30.10,SSE,156,0.0,0.0,96,0.00,,---,0.00,VWS V14.01,2013-07-31 11:19:00,
2013-07-31 07:20:00,59.2,58.1,30.10,SSE,156,0.0,0.0,96,0.00,,---,0.00,VWS V14.01,2013-07-31 11:20:00,
2013-07-31 07:23:00,59.3,58.2,30.10,SSE,156,0.0,0.0,96,0.00,,---,0.00,VWS V14.01,2013-07-31 11:23:00,
2013-07-31 07:24:00,59.3,58.2,30.10,SSE,156,0.0,0.0,96,0.00,,---,0.00,VWS V14.01,2013-07-31 11:24:00,
2013-07-31 07:25:00,59.3,58.2,30.10,SSE,156,0.0,0.0,96,0.00,,---,0.00,VWS V14.01,2013-07-31 11:25:00,
2013-07-31 07:28:00,59.5,58.4,30.10,SSE,156,0.0,0.0,96,0.00,,---,0.00,VWS V14.01,2013-07-31 11:28:00,
2013-07-31 07:29:00,59.5,58.4,30.10,SSE,156,0.0,0.0,96,0.00,,---,0.00,VWS V14.01,2013-07-31 11:29:00,
2013-07-31 07:30:00,59.6,58.8,30.10,SSE,156,0.0,0.0,97,0.00,,---,0.00,VWS V14.01,2013-07-31 11:30:00,
2013-07-31 07:33:00,59.8,59.0,30.10,SSE,156,0.0,0.0,97,0.00,,---,0.00,VWS V14.01,2013-07-31 11:33:00,
2013-07-31 07:34:00,59.9,59.0,30.10,SSE,156,0.0,0.0,97,0.00,,---,0.00,VWS V14.01,2013-07-31 11:34:00,
2013-07-31 07:35:00,59.9,59.0,30.10,SSE,156,0.0,0.0,97,0.00,,---,0.00,VWS V14.01,2013-07-31 11:35:00,
2013-07-31 07:38:00,60.2,59.6,30.10,SSE,156,0.0,0.0,98,0.00,,---,0.00,VWS V14.01,2013-07-31 11:38:00,
2013-07-31 07:39:00,60.4,59.8,30.10,SSE,156,0.0,0.0,98,0.00,,---,0.00,VWS V14.01,2013-07-31 11:39:00,
2013-07-31 07:40:00,60.4,59.8,30.10,SSE,156,0.0,0.0,98,0.00,,---,0.00,VWS V14.01,2013-07-31 11:40:00,
2013-07-31 07:43:00,60.5,59.7,30.10,SSE,156,0.0,0.0,97,0.00,,---,0.00,VWS V14.01,2013-07-31 11:43:00,
2013-07-31 07:44:00,60.7,60.1,30.10,SSE,156,0.0,0.0,98,0.00,,---,0.00,VWS V14.01,2013-07-31 11:44:00,
2013-07-31 07:45:00,60.7,60.1,30.10,SSE,156,0.0,0.0,98,0.00,,---,0.00,VWS V14.01,2013-07-31 11:45:00,
2013-07-31 07:48:00,60.9,60.3,30.10,SSE,156,0.0,0.0,98,0.00,,---,0.00,VWS V14.01,2013-07-31 11:48:00,
2013-07-31 07:49:00,61.0,60.4,30.10,SSE,156,0.0,0.0,98,0.00,,---,0.00,VWS V14.01,2013-07-31 11:49:00,
2013-07-31 07:50:00,61.0,60.4,30.10,SSE,156,0.0,0.0,98,0.00,,---,0.00,VWS V14.01,2013-07-31 11:50:00,
2013-07-31 07:53:00,61.3,60.7,30.10,SSE,155,0.0,0.0,98,0.00,,---,0.00,VWS V14.01,2013-07-31 11:53:00,
2013-07-31 07:54:00,61.5,60.9,30.10,SSE,155,0.0,0.0,98,0.00,,---,0.00,VWS V14.01,2013-07-31 11:54:00,
2013-07-31 07:55:00,61.5,60.9,30.10,SSE,155,0.0,0.0,98,0.00,,---,0.00,VWS V14.01,2013-07-31 11:55:00,
2013-07-31 07:58:00,61.8,61.2,30.10,SSE,155,0.0,0.0,98,0.00,,---,0.00,VWS V14.01,2013-07-31 11:58:00,
2013-07-31 07:59:00,61.8,61.2,30.10,SSE,155,0.0,0.0,98,0.00,,---,0.00,VWS V14.01,2013-07-31 11:59:00,
2013-07-31 08:00:00,61.8,61.2,30.10,SSE,155,0.0,1.0,98,0.00,,---,0.00,VWS V14.01,2013-07-31 12:00:00,
2013-07-31 08:03:00,62.0,61.4,30.09,SSE,155,0.0,0.0,98,0.00,,---,0.00,VWS V14.01,2013-07-31 12:03:00,
2013-07-31 08:04:00,62.0,61.4,30.09,SSE,155,0.0,0.0,98,0.00,,---,0.00,VWS V14.01,2013-07-31 12:04:00,
2013-07-31 08:06:00,62.0,61.4,30.09,SSE,155,0.0,0.0,98,0.00,,---,0.00,VWS V14.01,2013-07-31 12:06:00,
2013-07-31 08:08:00,62.1,61.5,30.09,SSE,155,0.0,0.0,98,0.00,,---,0.00,VWS V14.01,2013-07-31 12:08:00,
2013-07-31 08:09:00,62.3,61.7,30.09,SSE,155,0.0,0.0,98,0.00,,---,0.00,VWS V14.01,2013-07-31 12:09:00,
2013-07-31 08:11:00,62.3,61.7,30.09,SSE,155,0.0,0.0,98,0.00,,---,0.00,VWS V14.01,2013-07-31 12:11:00,
2013-07-31 08:13:00,62.4,61.8,30.09,SSE,155,0.0,0.0,98,0.00,,---,0.00,VWS V14.01,2013-07-31 12:13:00,
2013-07-31 08:14:00,62.4,61.8,30.09,SSE,155,0.0,0.0,98,0.00,,---,0.00,VWS V14.01,2013-07-31 12:14:00,
2013-07-31 08:16:00,62.6,62.3,30.09,SSE,155,0.0,0.0,99,0.00,,---,0.00,VWS V14.01,2013-07-31 12:16:00,
2013-07-31 08:18:00,62.7,62.4,30.10,SSE,155,0.0,0.0,99,0.00,,---,0.00,VWS V14.01,2013-07-31 12:18:00,
2013-07-31 08:19:00,62.7,62.4,30.10,SSE,155,0.0,0.0,99,0.00,,---,0.00,VWS V14.01,2013-07-31 12:19:00,
2013-07-31 08:21:00,62.9,62.6,30.10,SSE,155,0.0,0.0,99,0.00,,---,0.00,VWS V14.01,2013-07-31 12:21:00,
2013-07-31 08:24:00,63.1,62.8,30.10,SSE,155,0.0,0.0,99,0.00,,---,0.00,VWS V14.01,2013-07-31 12:24:00,
2013-07-31 08:26:00,63.2,62.9,30.10,SSE,155,0.0,0.0,99,0.00,,---,0.00,VWS V14.01,2013-07-31 12:26:00,
2013-07-31 08:29:00,63.5,63.2,30.10,SSE,155,0.0,0.0,99,0.00,,---,0.00,VWS V14.01,2013-07-31 12:29:00,
2013-07-31 08:31:00,63.7,63.4,30.10,SSE,155,0.0,0.0,99,0.00,,---,0.00,VWS V14.01,2013-07-31 12:31:00,
2013-07-31 08:34:00,63.9,63.6,30.10,SSE,155,0.0,0.0,99,0.00,,---,0.00,VWS V14.01,2013-07-31 12:34:00,
2013-07-31 08:35:00,63.9,63.6,30.10,SSE,155,0.0,0.0,99,0.00,,---,0.00,VWS V14.01,2013-07-31 12:35:00,
2013-07-31 08:36:00,64.0,63.4,30.10,SSE,154,0.0,0.0,98,0.00,,---,0.00,VWS V14.01,2013-07-31 12:36:00,
2013-07-31 08:39:00,64.2,63.6,30.10,SSE,154,0.0,0.0,98,0.00,,---,0.00,VWS V14.01,2013-07-31 12:39:00,
2013-07-31 08:40:00,64.2,63.6,30.10,SSE,155,0.0,0.0,98,0.00,,---,0.00,VWS V14.01,2013-07-31 12:40:00,
2013-07-31 08:41:00,64.2,63.6,30.10,SSE,154,0.0,0.0,98,0.00,,---,0.00,VWS V14.01,2013-07-31 12:41:00,
2013-07-31 08:44:00,64.2,63.6,30.10,SSE,155,0.0,0.0,98,0.00,,---,0.00,VWS V14.01,2013-07-31 12:44:00,
2013-07-31 08:45:00,64.3,63.7,30.10,SSE,155,0.0,0.0,98,0.00,,---,0.00,VWS V14.01,2013-07-31 12:45:00,
2013-07-31 08:46:00,64.3,63.7,30.10,SSE,155,0.0,0.0,98,0.00,,---,0.00,VWS V14.01,2013-07-31 12:46:00,
2013-07-31 08:49:00,64.3,63.7,30.10,SSE,155,0.0,0.0,98,0.00,,---,0.00,VWS V14.01,2013-07-31 12:49:00,
2013-07-31 08:50:00,64.3,63.7,30.10,SSE,155,0.0,0.0,98,0.00,,---,0.00,VWS V14.01,2013-07-31 12:50:00,
2013-07-31 08:52:00,64.3,63.4,30.10,SSE,155,0.0,0.0,97,0.00,,---,0.00,VWS V14.01,2013-07-31 12:52:00,
2013-07-31 08:54:00,64.3,63.4,30.10,SSE,155,0.0,0.0,97,0.00,,---,0.00,VWS V14.01,2013-07-31 12:54:00,
2013-07-31 08:55:00,64.5,63.6,30.10,SSE,155,0.0,0.0,97,0.00,,---,0.00,VWS V14.01,2013-07-31 12:55:00,
2013-07-31 08:57:00,64.5,63.6,30.10,SSE,155,0.0,0.0,97,0.00,,---,0.00,VWS V14.01,2013-07-31 12:57:00,
2013-07-31 08:59:00,64.5,63.6,30.10,SSE,155,0.0,0.0,97,0.00,,---,0.00,VWS V14.01,2013-07-31 12:59:00,
2013-07-31 09:00:00,64.7,63.8,30.10,SSE,155,0.0,0.0,97,0.00,,---,0.00,VWS V14.01,2013-07-31 13:00:00,
2013-07-31 09:02:00,64.7,63.8,30.10,SSE,155,0.0,0.0,97,0.00,,---,0.00,VWS V14.01,2013-07-31 13:02:00,
2013-07-31 09:04:00,64.8,63.9,30.10,SSE,155,0.0,0.0,97,0.00,,---,0.00,VWS V14.01,2013-07-31 13:04:00,
2013-07-31 09:05:00,64.8,63.9,30.10,SSE,155,0.0,0.0,97,0.00,,---,0.00,VWS V14.01,2013-07-31 13:05:00,
2013-07-31 09:07:00,64.8,63.9,30.10,SSE,155,0.0,0.0,97,0.00,,---,0.00,VWS V14.01,2013-07-31 13:07:00,
2013-07-31 09:09:00,65.0,64.1,30.10,SSE,155,0.0,0.0,97,0.00,,---,0.00,VWS V14.01,2013-07-31 13:09:00,
2013-07-31 09:10:00,65.0,64.1,30.10,SSE,155,0.0,0.0,97,0.00,,---,0.00,VWS V14.01,2013-07-31 13:10:00,
2013-07-31 09:12:00,65.0,64.1,30.10,SSE,155,0.0,0.0,97,0.00,,---,0.00,VWS V14.01,2013-07-31 13:12:00,
2013-07-31 09:14:00,65.0,64.1,30.10,SSE,155,0.0,0.0,97,0.00,,---,0.00,VWS V14.01,2013-07-31 13:14:00,
2013-07-31 09:15:00,65.0,63.8,30.10,SSE,155,0.0,0.0,96,0.00,,---,0.00,VWS V14.01,2013-07-31 13:15:00,
2013-07-31 09:17:00,65.2,64.0,30.10,SSE,154,0.0,0.0,96,0.00,,---,0.00,VWS V14.01,2013-07-31 13:17:00,
2013-07-31 09:19:00,65.2,64.0,30.10,SSE,155,0.0,0.0,96,0.00,,---,0.00,VWS V14.01,2013-07-31 13:19:00,
2013-07-31 09:20:00,65.2,64.0,30.10,SSE,155,0.0,0.0,96,0.00,,---,0.00,VWS V14.01,2013-07-31 13:20:00,
2013-07-31 09:22:00,65.2,64.0,30.10,SSE,155,0.0,0.0,96,0.00,,---,0.00,VWS V14.01,2013-07-31 13:22:00,
2013-07-31 09:24:00,65.2,64.0,30.10,SSE,155,0.0,0.0,96,0.00,,---,0.00,VWS V14.01,2013-07-31 13:24:00,
2013-07-31 09:25:00,65.2,64.0,30.10,SSE,155,0.0,0.0,96,0.00,,---,0.00,VWS V14.01,2013-07-31 13:25:00,
2013-07-31 09:27:00,65.3,64.1,30.10,SSE,155,0.0,0.0,96,0.00,,---,0.00,VWS V14.01,2013-07-31 13:27:00,
2013-07-31 09:29:00,65.3,63.8,30.10,SSE,155,0.0,0.0,95,0.00,,---,0.00,VWS V14.01,2013-07-31 13:29:00,
2013-07-31 09:30:00,65.3,63.8,30.10,SSE,155,0.0,0.0,95,0.00,,---,0.00,VWS V14.01,2013-07-31 13:30:00,
2013-07-31 09:32:00,65.3,63.8,30.10,SSE,155,0.0,0.0,95,0.00,,---,0.00,VWS V14.01,2013-07-31 13:32:00,
2013-07-31 09:34:00,65.3,63.5,30.10,SSE,155,0.0,0.0,94,0.00,,---,0.00,VWS V14.01,2013-07-31 13:34:00,
2013-07-31 09:35:00,65.3,63.8,30.10,SSE,155,0.0,0.0,95,0.00,,---,0.00,VWS V14.01,2013-07-31 13:35:00,
2013-07-31 09:37:00,65.5,63.7,30.10,SSE,155,0.0,0.0,94,0.00,,---,0.00,VWS V14.01,2013-07-31 13:37:00,
2013-07-31 09:39:00,65.6,63.8,30.10,SSE,155,0.0,0.0,94,0.00,,---,0.00,VWS V14.01,2013-07-31 13:39:00,
2013-07-31 09:40:00,65.6,63.8,30.10,SSE,155,0.0,0.0,94,0.00,,---,0.00,VWS V14.01,2013-07-31 13:40:00,
2013-07-31 09:43:00,65.8,64.0,30.10,SSE,154,0.0,0.0,94,0.00,,---,0.00,VWS V14.01,2013-07-31 13:43:00,
2013-07-31 09:44:00,65.8,64.0,30.10,SSE,155,0.0,0.0,94,0.00,,---,0.00,VWS V14.01,2013-07-31 13:44:00,
2013-07-31 09:45:00,65.8,64.0,30.10,SSE,155,0.0,0.0,94,0.00,,---,0.00,VWS V14.01,2013-07-31 13:45:00,
2013-07-31 09:48:00,66.0,64.2,30.10,SSE,155,0.0,0.0,94,0.00,,---,0.00,VWS V14.01,2013-07-31 13:48:00,
2013-07-31 09:49:00,66.1,64.3,30.10,SSE,155,0.0,0.0,94,0.00,,---,0.00,VWS V14.01,2013-07-31 13:49:00,
2013-07-31 09:50:00,66.1,64.3,30.10,SSE,155,0.0,0.0,94,0.00,,---,0.00,VWS V14.01,2013-07-31 13:50:00,
2013-07-31 09:53:00,66.1,64.3,30.10,SSE,155,0.0,1.0,94,0.00,,---,0.00,VWS V14.01,2013-07-31 13:53:00,
2013-07-31 09:54:00,66.3,64.5,30.10,SSE,154,0.0,0.0,94,0.00,,---,0.00,VWS V14.01,2013-07-31 13:54:00,
2013-07-31 09:55:00,66.3,64.5,30.10,SSE,155,0.0,0.0,94,0.00,,---,0.00,VWS V14.01,2013-07-31 13:55:00,
2013-07-31 09:58:00,66.4,64.3,30.10,SSE,155,0.0,0.0,93,0.00,,---,0.00,VWS V14.01,2013-07-31 13:58:00,
2013-07-31 10:00:00,66.4,64.3,30.10,SSE,155,0.0,0.0,93,0.00,,---,0.00,VWS V14.01,2013-07-31 14:00:00,
2013-07-31 10:03:00,66.6,64.5,30.09,SSE,155,0.0,0.0,93,0.00,,---,0.00,VWS V14.01,2013-07-31 14:03:00,
2013-07-31 10:05:00,66.8,65.0,30.09,SSE,155,0.0,0.0,94,0.00,,---,0.00,VWS V14.01,2013-07-31 14:05:00,
2013-07-31 10:08:00,67.1,65.3,30.09,SSE,155,0.0,0.0,94,0.00,,---,0.00,VWS V14.01,2013-07-31 14:08:00,
2013-07-31 10:10:00,67.1,65.0,30.09,SSE,155,0.0,0.0,93,0.00,,---,0.00,VWS V14.01,2013-07-31 14:10:00,
2013-07-31 10:13:00,67.3,65.2,30.09,SSE,155,0.0,0.0,93,0.00,,---,0.00,VWS V14.01,2013-07-31 14:13:00,
2013-07-31 10:15:00,67.3,64.9,30.09,SSE,155,0.0,0.0,92,0.00,,---,0.00,VWS V14.01,2013-07-31 14:15:00,
2013-07-31 10:16:00,67.3,64.9,30.09,SSE,155,0.0,0.0,92,0.00,,---,0.00,VWS V14.01,2013-07-31 14:16:00,
2013-07-31 10:18:00,67.4,65.0,30.09,SSE,155,0.0,0.0,92,0.00,,---,0.00,VWS V14.01,2013-07-31 14:18:00,
2013-07-31 10:20:00,67.4,65.0,30.09,SSE,155,0.0,0.0,92,0.00,,---,0.00,VWS V14.01,2013-07-31 14:20:00,
2013-07-31 10:21:00,67.4,65.0,30.09,SSE,155,0.0,0.0,92,0.00,,---,0.00,VWS V14.01,2013-07-31 14:21:00,
2013-07-31 10:23:00,67.4,64.7,30.09,SSE,155,0.0,0.0,91,0.00,,---,0.00,VWS V14.01,2013-07-31 14:23:00,
2013-07-31 10:25:00,67.4,64.7,30.09,SSE,155,0.0,0.0,91,0.00,,---,0.00,VWS V14.01,2013-07-31 14:25:00,
2013-07-31 10:26:00,67.6,64.9,30.09,SSE,154,0.0,0.0,91,0.00,,---,0.00,VWS V14.01,2013-07-31 14:26:00,
2013-07-31 10:28:00,67.6,64.9,30.09,SSE,155,0.0,0.0,91,0.00,,---,0.00,VWS V14.01,2013-07-31 14:28:00,
2013-07-31 10:30:00,67.6,64.6,30.09,SSE,155,0.0,0.0,90,0.00,,---,0.00,VWS V14.01,2013-07-31 14:30:00,
2013-07-31 10:31:00,67.6,64.6,30.09,SSE,155,0.0,0.0,90,0.00,,---,0.00,VWS V14.01,2013-07-31 14:31:00,
2013-07-31 10:33:00,67.8,64.8,30.09,SSE,155,0.0,0.0,90,0.00,,---,0.00,VWS V14.01,2013-07-31 14:33:00,
2013-07-31 10:35:00,67.8,64.8,30.09,SSE,155,0.0,0.0,90,0.00,,---,0.00,VWS V14.01,2013-07-31 14:35:00,
2013-07-31 10:36:00,67.8,64.8,30.09,SSE,155,0.0,0.0,90,0.00,,---,0.00,VWS V14.01,2013-07-31 14:36:00,
2013-07-31 10:37:00,67.8,64.4,30.09,SSE,155,0.0,0.0,89,0.00,,---,0.00,VWS V14.01,2013-07-31 14:37:00,
2013-07-31 10:38:00,67.8,64.4,30.09,SSE,155,0.0,0.0,89,0.00,,---,0.00,VWS V14.01,2013-07-31 14:38:00,
2013-07-31 10:40:00,67.8,64.4,30.09,SSE,155,0.0,0.0,89,0.00,,---,0.00,VWS V14.01,2013-07-31 14:40:00,
2013-07-31 10:41:00,67.9,64.5,30.09,SSE,155,0.0,0.0,89,0.00,,---,0.00,VWS V14.01,2013-07-31 14:41:00,
2013-07-31 10:42:00,67.9,64.5,30.09,SSE,155,0.0,0.0,89,0.00,,---,0.00,VWS V14.01,2013-07-31 14:42:00,
2013-07-31 10:43:00,67.9,64.5,30.09,SSE,155,0.0,0.0,89,0.00,,---,0.00,VWS V14.01,2013-07-31 14:43:00,
2013-07-31 10:45:00,67.9,64.2,30.09,SSE,155,0.0,0.0,88,0.00,,---,0.00,VWS V14.01,2013-07-31 14:45:00,
2013-07-31 10:46:00,67.9,64.2,30.09,SSE,155,0.0,0.0,88,0.00,,---,0.00,VWS V14.01,2013-07-31 14:46:00,
2013-07-31 10:47:00,67.9,64.2,30.09,SSE,155,0.0,0.0,88,0.00,,---,0.00,VWS V14.01,2013-07-31 14:47:00,
2013-07-31 10:48:00,68.1,64.4,30.09,SSE,155,0.0,0.0,88,0.00,,---,0.00,VWS V14.01,2013-07-31 14:48:00,
2013-07-31 10:50:00,68.1,64.4,30.09,SSE,154,0.0,0.0,88,0.00,,---,0.00,VWS V14.01,2013-07-31 14:50:00,
2013-07-31 10:51:00,68.1,64.4,30.09,SSE,155,0.0,0.0,88,0.00,,---,0.00,VWS V14.01,2013-07-31 14:51:00,
2013-07-31 10:52:00,68.1,64.4,30.09,SSE,155,0.0,0.0,88,0.00,,---,0.00,VWS V14.01,2013-07-31 14:52:00,
2013-07-31 10:54:00,68.1,64.4,30.09,SSE,155,0.0,0.0,88,0.00,,---,0.00,VWS V14.01,2013-07-31 14:54:00,
2013-07-31 10:55:00,68.3,64.6,30.09,SSE,155,0.0,0.0,88,0.00,,---,0.00,VWS V14.01,2013-07-31 14:55:00,
2013-07-31 10:56:00,68.3,64.6,30.09,SSE,155,0.0,0.0,88,0.00,,---,0.00,VWS V14.01,2013-07-31 14:56:00,
2013-07-31 10:57:00,68.3,64.6,30.09,SSE,154,0.0,0.0,88,0.00,,---,0.00,VWS V14.01,2013-07-31 14:57:00,
2013-07-31 10:58:00,68.4,64.7,30.09,SSE,155,0.0,0.0,88,0.00,,---,0.00,VWS V14.01,2013-07-31 14:58:00,
2013-07-31 11:00:00,68.4,64.7,30.09,SSE,155,0.0,0.0,88,0.00,,---,0.00,VWS V14.01,2013-07-31 15:00:00,
2013-07-31 11:02:00,68.4,64.7,30.09,SSE,155,0.0,0.0,88,0.00,,---,0.00,VWS V14.01,2013-07-31 15:02:00,
2013-07-31 11:03:00,68.4,64.7,30.09,SSE,155,0.0,1.0,88,0.00,,---,0.00,VWS V14.01,2013-07-31 15:03:00,
2013-07-31 11:05:00,68.6,64.9,30.09,SSE,155,0.0,0.0,88,0.00,,---,0.00,VWS V14.01,2013-07-31 15:05:00,
2013-07-31 11:07:00,68.6,64.9,30.09,SSE,155,0.0,0.0,88,0.00,,---,0.00,VWS V14.01,2013-07-31 15:07:00,
2013-07-31 11:09:00,68.8,65.1,30.09,SSE,154,0.0,0.0,88,0.00,,---,0.00,VWS V14.01,2013-07-31 15:09:00,
2013-07-31 11:10:00,68.8,65.1,30.09,SSE,155,0.0,1.0,88,0.00,,---,0.00,VWS V14.01,2013-07-31 15:10:00,
2013-07-31 11:12:00,68.8,64.8,30.09,SSE,155,0.0,0.0,87,0.00,,---,0.00,VWS V14.01,2013-07-31 15:12:00,
2013-07-31 11:14:00,68.8,64.8,30.09,SSE,154,0.0,0.0,87,0.00,,---,0.00,VWS V14.01,2013-07-31 15:14:00,
2013-07-31 11:15:00,68.9,65.2,30.09,SSE,155,0.0,0.0,88,0.00,,---,0.00,VWS V14.01,2013-07-31 15:15:00,
2013-07-31 11:17:00,69.1,65.4,30.09,SSE,155,0.0,1.0,88,0.00,,---,0.00,VWS V14.01,2013-07-31 15:17:00,
2013-07-31 11:19:00,68.9,64.9,30.09,SSE,155,0.0,0.0,87,0.00,,---,0.00,VWS V14.01,2013-07-31 15:19:00,
2013-07-31 11:20:00,68.9,64.9,30.09,South,180,0.0,0.0,87,0.00,,---,0.00,VWS V14.01,2013-07-31 15:20:00,
2013-07-31 11:21:00,68.9,64.9,30.09,South,180,0.0,0.0,87,0.00,,---,0.00,VWS V14.01,2013-07-31 15:21:00,
2013-07-31 11:23:00,69.1,65.1,30.09,West,274,0.0,2.0,87,0.00,,---,0.00,VWS V14.01,2013-07-31 15:23:00,
2013-07-31 11:24:00,69.1,65.1,30.09,West,274,0.0,2.0,87,0.00,,---,0.00,VWS V14.01,2013-07-31 15:24:00,
2013-07-31 11:25:00,69.1,65.1,30.09,West,274,0.0,1.0,87,0.00,,---,0.00,VWS V14.01,2013-07-31 15:25:00,
2013-07-31 11:26:00,69.1,65.1,30.09,West,274,0.0,1.0,87,0.00,,---,0.00,VWS V14.01,2013-07-31 15:26:00,
2013-07-31 11:28:00,69.1,65.1,30.09,West,274,0.0,0.0,87,0.00,,---,0.00,VWS V14.01,2013-07-31 15:28:00,
2013-07-31 11:29:00,69.3,65.3,30.09,West,275,2.0,3.0,87,0.00,,---,0.00,VWS V14.01,2013-07-31 15:29:00,
2013-07-31 11:30:00,69.3,65.3,30.09,West,275,1.0,1.0,87,0.00,,---,0.00,VWS V14.01,2013-07-31 15:30:00,
2013-07-31 11:31:00,69.3,65.3,30.09,West,275,1.0,1.0,87,0.00,,---,0.00,VWS V14.01,2013-07-31 15:31:00,
2013-07-31 11:33:00,69.3,65.3,30.09,West,275,1.0,2.0,87,0.00,,---,0.00,VWS V14.01,2013-07-31 15:33:00,
2013-07-31 11:34:00,69.3,64.9,30.09,West,275,0.0,0.0,86,0.00,,---,0.00,VWS V14.01,2013-07-31 15:34:00,
2013-07-31 11:35:00,69.3,64.9,30.09,West,275,0.0,1.0,86,0.00,,---,0.00,VWS V14.01,2013-07-31 15:35:00,
2013-07-31 11:36:00,69.4,65.0,30.09,West,275,0.0,1.0,86,0.00,,---,0.00,VWS V14.01,2013-07-31 15:36:00,
2013-07-31 11:38:00,69.4,65.4,30.09,West,275,0.0,1.0,87,0.00,,---,0.00,VWS V14.01,2013-07-31 15:38:00,
2013-07-31 11:39:00,69.6,65.6,30.09,West,275,0.0,0.0,87,0.00,,---,0.00,VWS V14.01,2013-07-31 15:39:00,
2013-07-31 11:40:00,69.6,65.2,30.09,West,275,0.0,0.0,86,0.00,,---,0.00,VWS V14.01,2013-07-31 15:40:00,
2013-07-31 11:41:00,69.6,65.2,30.09,West,275,0.0,0.0,86,0.00,,---,0.00,VWS V14.01,2013-07-31 15:41:00,
2013-07-31 11:43:00,69.4,64.7,30.09,West,275,0.0,0.0,85,0.00,,---,0.00,VWS V14.01,2013-07-31 15:43:00,
2013-07-31 11:44:00,69.4,64.7,30.09,West,275,0.0,0.0,85,0.00,,---,0.00,VWS V14.01,2013-07-31 15:44:00,
2013-07-31 11:46:00,69.4,64.7,30.09,West,275,0.0,1.0,85,0.00,,---,0.00,VWS V14.01,2013-07-31 15:46:00,
2013-07-31 11:48:00,69.4,64.4,30.08,West,275,0.0,0.0,84,0.00,,---,0.00,VWS V14.01,2013-07-31 15:48:00,
2013-07-31 11:49:00,69.4,64.4,30.08,West,275,0.0,0.0,84,0.00,,---,0.00,VWS V14.01,2013-07-31 15:49:00,
2013-07-31 11:51:00,69.4,64.4,30.08,West,275,0.0,0.0,84,0.00,,---,0.00,VWS V14.01,2013-07-31 15:51:00,
2013-07-31 11:53:00,69.4,64.4,30.08,West,275,0.0,0.0,84,0.00,,---,0.00,VWS V14.01,2013-07-31 15:53:00,
2013-07-31 11:54:00,69.4,64.4,30.08,West,275,0.0,0.0,84,0.00,,---,0.00,VWS V14.01,2013-07-31 15:54:00,
2013-07-31 11:56:00,69.4,64.4,30.08,West,275,0.0,0.0,84,0.00,,---,0.00,VWS V14.01,2013-07-31 15:56:00,
2013-07-31 11:58:00,69.4,64.4,30.08,West,275,0.0,0.0,84,0.00,,---,0.00,VWS V14.01,2013-07-31 15:58:00,
2013-07-31 11:59:00,69.4,64.4,30.08,West,275,0.0,0.0,84,0.00,,---,0.00,VWS V14.01,2013-07-31 15:59:00,
2013-07-31 12:01:00,69.4,64.4,30.08,West,275,0.0,0.0,84,0.00,,---,0.00,VWS V14.01,2013-07-31 16:01:00,
2013-07-31 12:03:00,69.4,64.4,30.08,West,275,0.0,0.0,84,0.00,,---,0.00,VWS V14.01,2013-07-31 16:03:00,
2013-07-31 12:04:00,69.4,64.4,30.08,West,275,0.0,0.0,84,0.00,,---,0.00,VWS V14.01,2013-07-31 16:04:00,
2013-07-31 12:06:00,69.6,64.6,30.08,West,275,0.0,0.0,84,0.00,,---,0.00,VWS V14.01,2013-07-31 16:06:00,
2013-07-31 12:07:00,69.6,64.6,30.08,West,275,0.0,0.0,84,0.00,,---,0.00,VWS V14.01,2013-07-31 16:07:00,
2013-07-31 12:08:00,69.6,64.6,30.08,West,275,0.0,1.0,84,0.00,,---,0.00,VWS V14.01,2013-07-31 16:08:00,
2013-07-31 12:09:00,69.6,64.6,30.08,West,275,0.0,1.0,84,0.00,,---,0.00,VWS V14.01,2013-07-31 16:09:00,
2013-07-31 12:11:00,69.6,64.2,30.08,West,275,0.0,0.0,83,0.00,,---,0.00,VWS V14.01,2013-07-31 16:11:00,
2013-07-31 12:12:00,69.6,64.2,30.08,West,275,0.0,0.0,83,0.00,,---,0.00,VWS V14.01,2013-07-31 16:12:00,
2013-07-31 12:13:00,69.6,64.2,30.08,West,275,0.0,0.0,83,0.00,,---,0.00,VWS V14.01,2013-07-31 16:13:00,
2013-07-31 12:14:00,69.6,64.2,30.08,West,275,0.0,0.0,83,0.00,,---,0.00,VWS V14.01,2013-07-31 16:14:00,
2013-07-31 12:16:00,69.6,64.2,30.08,West,275,0.0,0.0,83,0.00,,---,0.00,VWS V14.01,2013-07-31 16:16:00,
2013-07-31 12:17:00,69.6,64.2,30.08,West,275,0.0,0.0,83,0.00,,---,0.00,VWS V14.01,2013-07-31 16:17:00,
2013-07-31 12:18:00,69.6,64.2,30.08,West,275,0.0,0.0,83,0.00,,---,0.00,VWS V14.01,2013-07-31 16:18:00,
2013-07-31 12:19:00,69.6,64.2,30.08,West,275,0.0,0.0,83,0.00,,---,0.00,VWS V14.01,2013-07-31 16:19:00,
2013-07-31 12:22:00,69.6,64.2,30.08,West,275,0.0,0.0,83,0.00,,---,0.00,VWS V14.01,2013-07-31 16:22:00,
2013-07-31 12:23:00,69.6,64.2,30.08,West,275,0.0,0.0,83,0.00,,---,0.00,VWS V14.01,2013-07-31 16:23:00,
2013-07-31 12:24:00,69.6,64.2,30.08,West,275,0.0,0.0,83,0.00,,---,0.00,VWS V14.01,2013-07-31 16:24:00,
2013-07-31 12:27:00,69.8,64.4,30.08,West,275,0.0,0.0,83,0.00,,---,0.00,VWS V14.01,2013-07-31 16:27:00,
2013-07-31 12:28:00,69.8,64.4,30.08,West,275,0.0,0.0,83,0.00,,---,0.00,VWS V14.01,2013-07-31 16:28:00,
2013-07-31 12:29:00,69.8,64.4,30.08,West,275,0.0,0.0,83,0.00,,---,0.00,VWS V14.01,2013-07-31 16:29:00,
2013-07-31 12:32:00,69.9,64.8,30.07,West,275,0.0,0.0,84,0.00,,---,0.00,VWS V14.01,2013-07-31 16:32:00,
2013-07-31 12:33:00,69.9,64.5,30.07,West,275,0.0,0.0,83,0.00,,---,0.00,VWS V14.01,2013-07-31 16:33:00,
2013-07-31 12:34:00,69.9,64.5,30.07,West,275,0.0,0.0,83,0.00,,---,0.00,VWS V14.01,2013-07-31 16:34:00,
2013-07-31 12:37:00,69.9,64.5,30.07,West,275,0.0,0.0,83,0.00,,---,0.00,VWS V14.01,2013-07-31 16:37:00,
2013-07-31 12:38:00,69.9,64.2,30.07,West,275,0.0,0.0,82,0.00,,---,0.00,VWS V14.01,2013-07-31 16:38:00,
2013-07-31 12:39:00,69.9,64.2,30.07,West,275,0.0,0.0,82,0.00,,---,0.00,VWS V14.01,2013-07-31 16:39:00,
2013-07-31 12:42:00,69.9,64.2,30.07,West,275,0.0,0.0,82,0.00,,---,0.00,VWS V14.01,2013-07-31 16:42:00,
2013-07-31 12:43:00,69.9,64.2,30.07,West,275,0.0,0.0,82,0.00,,---,0.00,VWS V14.01,2013-07-31 16:43:00,
2013-07-31 12:44:00,69.9,64.2,30.07,West,275,0.0,0.0,82,0.00,,---,0.00,VWS V14.01,2013-07-31 16:44:00,
2013-07-31 12:48:00,70.1,64.7,30.06,West,275,0.0,0.0,83,0.00,,---,0.00,VWS V14.01,2013-07-31 16:48:00,
2013-07-31 12:49:00,70.3,65.2,30.06,West,275,0.0,0.0,84,0.00,,---,0.00,VWS V14.01,2013-07-31 16:49:00,
2013-07-31 12:53:00,70.3,65.2,30.06,West,275,0.0,0.0,84,0.00,,---,0.00,VWS V14.01,2013-07-31 16:53:00,
2013-07-31 12:54:00,70.3,64.9,30.06,West,275,0.0,1.0,83,0.00,,---,0.00,VWS V14.01,2013-07-31 16:54:00,
2013-07-31 12:58:00,70.3,64.6,30.06,West,275,0.0,0.0,82,0.00,,---,0.00,VWS V14.01,2013-07-31 16:58:00,
2013-07-31 12:59:00,70.4,65.0,30.06,West,275,0.0,0.0,83,0.00,,---,0.00,VWS V14.01,2013-07-31 16:59:00,
2013-07-31 13:03:00,70.6,65.2,30.06,West,275,0.0,0.0,83,0.00,,---,0.00,VWS V14.01,2013-07-31 17:03:00,
2013-07-31 13:04:00,70.6,65.2,30.06,West,275,0.0,0.0,83,0.00,,---,0.00,VWS V14.01,2013-07-31 17:04:00,
2013-07-31 13:08:00,70.8,65.7,30.06,West,275,0.0,0.0,84,0.00,,---,0.00,VWS V14.01,2013-07-31 17:08:00,
2013-07-31 13:09:00,70.8,65.7,30.06,West,275,0.0,0.0,84,0.00,,---,0.00,VWS V14.01,2013-07-31 17:09:00,
2013-07-31 13:13:00,70.8,65.4,30.06,West,275,0.0,0.0,83,0.00,,---,0.00,VWS V14.01,2013-07-31 17:13:00,
2013-07-31 13:14:00,70.8,65.4,30.06,West,275,0.0,0.0,83,0.00,,---,0.00,VWS V14.01,2013-07-31 17:14:00,
2013-07-31 13:18:00,70.9,65.1,30.06,West,275,0.0,0.0,82,0.00,,---,0.00,VWS V14.01,2013-07-31 17:18:00,
2013-07-31 13:19:00,70.9,65.1,30.06,West,275,0.0,0.0,82,0.00,,---,0.00,VWS V14.01,2013-07-31 17:19:00,
2013-07-31 13:20:00,70.9,65.1,30.06,West,275,0.0,0.0,82,0.00,,---,0.00,VWS V14.01,2013-07-31 17:20:00,
2013-07-31 13:23:00,71.1,65.7,30.06,West,275,0.0,0.0,83,0.00,,---,0.00,VWS V14.01,2013-07-31 17:23:00,
2013-07-31 13:24:00,71.1,65.7,30.06,West,275,0.0,1.0,83,0.00,,---,0.00,VWS V14.01,2013-07-31 17:24:00,
2013-07-31 13:25:00,71.1,65.7,30.06,SW,236,0.0,4.0,83,0.00,,---,0.00,VWS V14.01,2013-07-31 17:25:00,
2013-07-31 13:28:00,71.3,65.9,30.06,South,186,4.0,4.0,83,0.00,,---,0.00,VWS V14.01,2013-07-31 17:28:00,
2013-07-31 13:29:00,71.3,65.9,30.06,South,174,4.0,4.0,83,0.00,,---,0.00,VWS V14.01,2013-07-31 17:29:00,
2013-07-31 13:30:00,71.3,65.5,30.06,South,178,1.0,4.0,82,0.00,,---,0.00,VWS V14.01,2013-07-31 17:30:00,
2013-07-31 13:33:00,71.3,65.5,30.06,South,178,1.0,3.0,82,0.00,,---,0.00,VWS V14.01,2013-07-31 17:33:00,
2013-07-31 13:34:00,71.3,65.5,30.06,South,178,1.0,3.0,82,0.00,,---,0.00,VWS V14.01,2013-07-31 17:34:00,
2013-07-31 13:35:00,71.5,65.7,30.06,South,187,0.0,6.0,82,0.00,,---,0.00,VWS V14.01,2013-07-31 17:35:00,
2013-07-31 13:39:00,71.5,65.7,30.06,SSW,196,0.0,1.0,82,0.00,,---,0.00,VWS V14.01,2013-07-31 17:39:00,
2013-07-31 13:40:00,71.6,65.8,30.06,SSW,196,1.0,2.0,82,0.00,,---,0.00,VWS V14.01,2013-07-31 17:40:00,
2013-07-31 13:44:00,71.6,65.5,30.06,SSW,196,0.0,3.0,81,0.00,,---,0.00,VWS V14.01,2013-07-31 17:44:00,
2013-07-31 13:45:00,71.6,65.5,30.06,South,178,2.0,5.0,81,0.00,,---,0.00,VWS V14.01,2013-07-31 17:45:00,
2013-07-31 13:49:00,71.8,65.7,30.05,South,189,0.0,1.0,81,0.00,,---,0.00,VWS V14.01,2013-07-31 17:49:00,
2013-07-31 13:50:00,71.8,65.7,30.05,SW,215,0.0,0.0,81,0.00,,---,0.00,VWS V14.01,2013-07-31 17:50:00,
2013-07-31 13:54:00,72.0,65.1,30.05,South,180,0.0,1.0,79,0.00,,---,0.00,VWS V14.01,2013-07-31 17:54:00,
2013-07-31 13:55:00,72.0,65.1,30.05,South,180,1.0,1.0,79,0.00,,---,0.00,VWS V14.01,2013-07-31 17:55:00,
2013-07-31 13:59:00,72.0,64.8,30.05,SE,136,5.0,5.0,78,0.00,,---,0.00,VWS V14.01,2013-07-31 17:59:00,
2013-07-31 14:00:00,72.0,64.8,30.05,SE,136,0.0,4.0,78,0.00,,---,0.00,VWS V14.01,2013-07-31 18:00:00,
2013-07-31 14:04:00,72.1,65.2,30.04,SSE,161,0.0,3.0,79,0.00,,---,0.00,VWS V14.01,2013-07-31 18:04:00,
2013-07-31 14:05:00,72.3,65.4,30.04,SSE,166,0.0,0.0,79,0.00,,---,0.00,VWS V14.01,2013-07-31 18:05:00,
2013-07-31 14:09:00,72.5,65.3,30.04,SE,131,0.0,0.0,78,0.00,,---,0.00,VWS V14.01,2013-07-31 18:09:00,
2013-07-31 14:10:00,72.5,65.3,30.04,SE,131,0.0,0.0,78,0.00,,---,0.00,VWS V14.01,2013-07-31 18:10:00,
2013-07-31 14:14:00,72.8,65.9,30.04,South,170,1.0,1.0,79,0.00,,---,0.00,VWS V14.01,2013-07-31 18:14:00,
2013-07-31 14:15:00,72.8,65.9,30.04,South,169,3.0,4.0,79,0.00,,---,0.00,VWS V14.01,2013-07-31 18:15:00,
2013-07-31 14:19:00,73.0,65.4,30.04,South,169,0.0,0.0,77,0.00,,---,0.00,VWS V14.01,2013-07-31 18:19:00,
2013-07-31 14:20:00,73.0,65.4,30.04,SSE,167,0.0,0.0,77,0.00,,---,0.00,VWS V14.01,2013-07-31 18:20:00,
2013-07-31 14:24:00,73.3,65.7,30.04,SE,143,0.0,0.0,77,0.00,,---,0.00,VWS V14.01,2013-07-31 18:24:00,
2013-07-31 14:25:00,73.3,65.3,30.04,SE,143,0.0,0.0,76,0.00,,---,0.00,VWS V14.01,2013-07-31 18:25:00,
2013-07-31 14:29:00,73.7,66.1,30.04,SE,143,0.0,0.0,77,0.00,,---,0.00,VWS V14.01,2013-07-31 18:29:00,
2013-07-31 14:30:00,73.7,65.7,30.04,SE,143,0.0,0.0,76,0.00,,---,0.00,VWS V14.01,2013-07-31 18:30:00,
2013-07-31 14:34:00,73.9,65.5,30.03,East,84,1.0,3.0,75,0.00,,---,0.00,VWS V14.01,2013-07-31 18:34:00,
2013-07-31 14:35:00,73.9,65.5,30.03,East,84,1.0,3.0,75,0.00,,---,0.00,VWS V14.01,2013-07-31 18:35:00,
2013-07-31 14:39:00,74.0,65.6,30.03,ESE,119,4.0,5.0,75,0.00,,---,0.00,VWS V14.01,2013-07-31 18:39:00,
2013-07-31 14:40:00,74.2,65.8,30.03,ESE,119,4.0,5.0,75,0.00,,---,0.00,VWS V14.01,2013-07-31 18:40:00,
2013-07-31 14:41:00,74.2,65.4,30.03,ESE,119,0.0,2.0,74,0.00,,---,0.00,VWS V14.01,2013-07-31 18:41:00,
2013-07-31 14:44:00,74.4,65.2,30.03,SSE,153,1.0,1.0,73,0.00,,---,0.00,VWS V14.01,2013-07-31 18:44:00,
2013-07-31 14:45:00,74.4,64.8,30.03,SSE,153,0.0,2.0,72,0.00,,---,0.00,VWS V14.01,2013-07-31 18:45:00,
2013-07-31 14:46:00,74.4,64.8,30.03,SSE,153,1.0,1.0,72,0.00,,---,0.00,VWS V14.01,2013-07-31 18:46:00,
2013-07-31 14:50:00,74.6,65.4,30.03,SSE,160,2.0,2.0,73,0.00,,---,0.00,VWS V14.01,2013-07-31 18:50:00,
2013-07-31 14:51:00,74.6,65.4,30.03,SSE,159,0.0,0.0,73,0.00,,---,0.00,VWS V14.01,2013-07-31 18:51:00,
2013-07-31 14:52:00,74.7,65.5,30.03,SSE,160,0.0,1.0,73,0.00,,---,0.00,VWS V14.01,2013-07-31 18:52:00,
2013-07-31 14:55:00,74.7,64.7,30.03,SSE,150,1.0,5.0,71,0.00,,---,0.00,VWS V14.01,2013-07-31 18:55:00,
2013-07-31 14:56:00,74.9,64.9,30.03,SSE,150,2.0,2.0,71,0.00,,---,0.00,VWS V14.01,2013-07-31 18:56:00,
2013-07-31 14:57:00,74.9,65.7,30.03,SSE,150,1.0,2.0,73,0.00,,---,0.00,VWS V14.01,2013-07-31 18:57:00,
2013-07-31 15:00:00,75.1,65.9,30.03,SSE,163,1.0,3.0,73,0.00,,---,0.00,VWS V14.01,2013-07-31 19:00:00,
2013-07-31 15:02:00,75.1,65.5,30.03,SSE,155,0.0,7.0,72,0.00,,---,0.00,VWS V14.01,2013-07-31 19:02:00,
2013-07-31 15:03:00,75.3,65.7,30.02,SSE,153,1.0,4.0,72,0.00,,---,0.00,VWS V14.01,2013-07-31 19:03:00,
2013-07-31 15:05:00,75.3,65.3,30.02,SSE,165,2.0,4.0,71,0.00,,---,0.00,VWS V14.01,2013-07-31 19:05:00,
2013-07-31 15:07:00,75.3,64.8,30.02,South,171,0.0,5.0,70,0.00,,---,0.00,VWS V14.01,2013-07-31 19:07:00,
2013-07-31 15:08:00,75.4,64.9,30.02,SSE,166,0.0,5.0,70,0.00,,---,0.00,VWS V14.01,2013-07-31 19:08:00,
2013-07-31 15:10:00,75.4,64.5,30.02,South,178,5.0,5.0,69,0.00,,---,0.00,VWS V14.01,2013-07-31 19:10:00,
2013-07-31 15:12:00,75.4,64.5,30.02,South,178,0.0,0.0,69,0.00,,---,0.00,VWS V14.01,2013-07-31 19:12:00,
2013-07-31 15:13:00,75.4,64.5,30.02,South,178,0.0,1.0,69,0.00,,---,0.00,VWS V14.01,2013-07-31 19:13:00,
2013-07-31 15:15:00,75.6,65.1,30.02,South,178,1.0,3.0,70,0.00,,---,0.00,VWS V14.01,2013-07-31 19:15:00,
2013-07-31 15:17:00,75.6,64.7,30.02,South,178,0.0,0.0,69,0.00,,---,0.00,VWS V14.01,2013-07-31 19:17:00,
2013-07-31 15:18:00,75.6,65.1,30.02,South,178,0.0,0.0,70,0.00,,---,0.00,VWS V14.01,2013-07-31 19:18:00,
2013-07-31 15:20:00,75.6,64.7,30.02,South,178,0.0,1.0,69,0.00,,---,0.00,VWS V14.01,2013-07-31 19:20:00,
2013-07-31 15:22:00,75.6,65.1,30.02,South,178,0.0,0.0,70,0.00,,---,0.00,VWS V14.01,2013-07-31 19:22:00,
2013-07-31 15:23:00,75.8,65.3,30.02,South,178,0.0,0.0,70,0.00,,---,0.00,VWS V14.01,2013-07-31 19:23:00,
2013-07-31 15:25:00,75.8,65.7,30.02,South,178,0.0,1.0,71,0.00,,---,0.00,VWS V14.01,2013-07-31 19:25:00,
2013-07-31 15:27:00,75.8,64.9,30.02,South,178,0.0,0.0,69,0.00,,---,0.00,VWS V14.01,2013-07-31 19:27:00,
2013-07-31 15:28:00,75.8,64.9,30.02,South,178,0.0,0.0,69,0.00,,---,0.00,VWS V14.01,2013-07-31 19:28:00,
2013-07-31 15:30:00,76.0,65.5,30.02,South,180,1.0,1.0,70,0.00,,---,0.00,VWS V14.01,2013-07-31 19:30:00,
2013-07-31 15:32:00,76.0,66.3,30.02,South,180,0.0,0.0,72,0.00,,---,0.00,VWS V14.01,2013-07-31 19:32:00,
2013-07-31 15:33:00,76.0,65.9,30.02,South,180,0.0,1.0,71,0.00,,---,0.00,VWS V14.01,2013-07-31 19:33:00,
2013-07-31 15:35:00,76.1,66.4,30.02,South,180,0.0,0.0,72,0.00,,---,0.00,VWS V14.01,2013-07-31 19:35:00,
2013-07-31 15:37:00,76.1,66.0,30.02,South,180,0.0,0.0,71,0.00,,---,0.00,VWS V14.01,2013-07-31 19:37:00,
2013-07-31 15:38:00,76.1,65.6,30.02,South,180,0.0,0.0,70,0.00,,---,0.00,VWS V14.01,2013-07-31 19:38:00,
2013-07-31 15:40:00,76.1,65.6,30.02,South,180,1.0,2.0,70,0.00,,---,0.00,VWS V14.01,2013-07-31 19:40:00,
2013-07-31 15:42:00,76.3,65.4,30.02,South,180,0.0,0.0,69,0.00,,---,0.00,VWS V14.01,2013-07-31 19:42:00,
2013-07-31 15:43:00,76.3,65.4,30.02,South,180,0.0,0.0,69,0.00,,---,0.00,VWS V14.01,2013-07-31 19:43:00,
2013-07-31 15:45:00,76.3,65.4,30.02,South,175,0.0,1.0,69,0.00,,---,0.00,VWS V14.01,2013-07-31 19:45:00,
2013-07-31 15:46:00,76.3,65.4,30.02,South,175,0.0,1.0,69,0.00,,---,0.00,VWS V14.01,2013-07-31 19:46:00,
2013-07-31 15:47:00,76.3,65.4,30.01,South,175,0.0,0.0,69,0.00,,---,0.00,VWS V14.01,2013-07-31 19:47:00,
2013-07-31 15:48:00,76.3,65.8,30.01,South,175,0.0,1.0,70,0.00,,---,0.00,VWS V14.01,2013-07-31 19:48:00,
2013-07-31 15:50:00,76.3,65.4,30.01,South,169,3.0,3.0,69,0.00,,---,0.00,VWS V14.01,2013-07-31 19:50:00,
2013-07-31 15:51:00,76.3,65.4,30.01,South,169,1.0,3.0,69,0.00,,---,0.00,VWS V14.01,2013-07-31 19:51:00,
2013-07-31 15:52:00,76.3,65.0,30.01,South,169,1.0,3.0,68,0.00,,---,0.00,VWS V14.01,2013-07-31 19:52:00,
2013-07-31 15:53:00,76.3,65.0,30.01,South,169,2.0,3.0,68,0.00,,---,0.00,VWS V14.01,2013-07-31 19:53:00,
2013-07-31 15:55:00,76.3,65.0,30.01,South,169,1.0,1.0,68,0.00,,---,0.00,VWS V14.01,2013-07-31 19:55:00,
2013-07-31 15:56:00,76.3,65.0,30.01,South,169,0.0,1.0,68,0.00,,---,0.00,VWS V14.01,2013-07-31 19:56:00,
2013-07-31 15:58:00,76.3,65.0,30.01,South,169,0.0,1.0,68,0.00,,---,0.00,VWS V14.01,2013-07-31 19:58:00,
2013-07-31 16:00:00,76.3,65.4,30.01,South,190,4.0,6.0,69,0.00,,---,0.00,VWS V14.01,2013-07-31 20:00:00,
2013-07-31 16:01:00,76.3,65.4,30.01,South,190,3.0,6.0,69,0.00,,---,0.00,VWS V14.01,2013-07-31 20:01:00,
2013-07-31 16:03:00,76.3,65.4,30.01,South,190,1.0,2.0,69,0.00,,---,0.00,VWS V14.01,2013-07-31 20:03:00,
2013-07-31 16:06:00,76.5,65.6,30.01,South,190,0.0,1.0,69,0.00,,---,0.00,VWS V14.01,2013-07-31 20:06:00,
2013-07-31 16:08:00,76.5,66.0,30.01,South,169,5.0,5.0,70,0.00,,---,0.00,VWS V14.01,2013-07-31 20:08:00,
2013-07-31 16:11:00,76.5,65.6,30.01,South,173,2.0,2.0,69,0.00,,---,0.00,VWS V14.01,2013-07-31 20:11:00,
2013-07-31 16:13:00,76.5,66.0,30.01,South,182,3.0,3.0,70,0.00,,---,0.00,VWS V14.01,2013-07-31 20:13:00,
2013-07-31 16:14:00,76.5,65.6,30.01,South,180,5.0,5.0,69,0.00,,---,0.00,VWS V14.01,2013-07-31 20:14:00,
2013-07-31 16:16:00,76.5,65.6,30.01,SSW,194,0.0,1.0,69,0.00,,---,0.00,VWS V14.01,2013-07-31 20:16:00,
2013-07-31 16:17:00,76.5,65.6,30.01,SSW,194,0.0,0.0,69,0.00,,---,0.00,VWS V14.01,2013-07-31 20:17:00,
2013-07-31 16:18:00,76.5,66.0,30.00,SSW,194,0.0,0.0,70,0.00,,---,0.00,VWS V14.01,2013-07-31 20:18:00,
2013-07-31 16:19:00,76.5,65.6,30.00,SE,126,1.0,4.0,69,0.00,,---,0.00,VWS V14.01,2013-07-31 20:19:00,
2013-07-31 16:21:00,76.5,65.6,30.00,SE,136,4.0,5.0,69,0.00,,---,0.00,VWS V14.01,2013-07-31 20:21:00,
2013-07-31 16:22:00,76.5,65.2,30.00,SE,136,0.0,3.0,68,0.00,,---,0.00,VWS V14.01,2013-07-31 20:22:00,
2013-07-31 16:23:00,76.5,65.2,30.00,SE,136,0.0,1.0,68,0.00,,---,0.00,VWS V14.01,2013-07-31 20:23:00,
2013-07-31 16:24:00,76.5,65.2,30.00,SE,136,3.0,3.0,68,0.00,,---,0.00,VWS V14.01,2013-07-31 20:24:00,
2013-07-31 16:27:00,76.3,63.7,30.00,SE,136,0.0,3.0,65,0.00,,---,0.00,VWS V14.01,2013-07-31 20:27:00,
2013-07-31 16:28:00,76.3,64.6,30.00,SE,136,3.0,3.0,67,0.00,,---,0.00,VWS V14.01,2013-07-31 20:28:00,
2013-07-31 16:29:00,76.3,65.0,30.00,SE,136,3.0,3.0,68,0.00,,---,0.00,VWS V14.01,2013-07-31 20:29:00,
2013-07-31 16:32:00,76.3,64.6,30.00,SE,130,0.0,5.0,67,0.00,,---,0.00,VWS V14.01,2013-07-31 20:32:00,
2013-07-31 16:33:00,76.3,65.0,29.99,SSE,165,3.0,6.0,68,0.00,,---,0.00,VWS V14.01,2013-07-31 20:33:00,
2013-07-31 16:34:00,76.3,65.0,29.99,SSE,165,0.0,0.0,68,0.00,,---,0.00,VWS V14.01,2013-07-31 20:34:00,
2013-07-31 16:37:00,76.3,65.0,29.99,South,175,4.0,5.0,68,0.00,,---,0.00,VWS V14.01,2013-07-31 20:37:00,
2013-07-31 16:38:00,76.3,65.0,29.99,South,175,0.0,3.0,68,0.00,,---,0.00,VWS V14.01,2013-07-31 20:38:00,
2013-07-31 16:39:00,76.3,65.0,29.99,South,175,0.0,0.0,68,0.00,,---,0.00,VWS V14.01,2013-07-31 20:39:00,
2013-07-31 16:42:00,76.3,65.0,29.99,South,173,0.0,4.0,68,0.00,,---,0.00,VWS V14.01,2013-07-31 20:42:00,
2013-07-31 16:43:00,76.1,64.8,29.99,South,173,0.0,3.0,68,0.00,,---,0.00,VWS V14.01,2013-07-31 20:43:00,
2013-07-31 16:44:00,76.3,65.4,29.99,South,173,3.0,3.0,69,0.00,,---,0.00,VWS V14.01,2013-07-31 20:44:00,
2013-07-31 16:47:00,76.1,64.8,29.99,South,175,0.0,2.0,68,0.00,,---,0.00,VWS V14.01,2013-07-31 20:47:00,
2013-07-31 16:48:00,76.1,64.8,29.99,South,175,0.0,1.0,68,0.00,,---,0.00,VWS V14.01,2013-07-31 20:48:00,
2013-07-31 16:49:00,76.1,65.2,29.99,South,175,0.0,0.0,69,0.00,,---,0.00,VWS V14.01,2013-07-31 20:49:00,
2013-07-31 16:52:00,76.3,65.8,29.99,South,175,0.0,1.0,70,0.00,,---,0.00,VWS V14.01,2013-07-31 20:52:00,
2013-07-31 16:53:00,76.3,65.8,29.99,South,175,1.0,1.0,70,0.00,,---,0.00,VWS V14.01,2013-07-31 20:53:00,
2013-07-31 16:54:00,76.3,66.2,29.99,South,175,0.0,1.0,71,0.00,,---,0.00,VWS V14.01,2013-07-31 20:54:00,
2013-07-31 16:57:00,76.3,66.2,29.99,South,175,0.0,0.0,71,0.00,,---,0.00,VWS V14.01,2013-07-31 20:57:00,
2013-07-31 16:58:00,76.3,66.2,29.99,South,175,0.0,0.0,71,0.00,,---,0.00,VWS V14.01,2013-07-31 20:58:00,
2013-07-31 16:59:00,76.3,66.6,29.99,South,175,0.0,0.0,72,0.00,,---,0.00,VWS V14.01,2013-07-31 20:59:00,
2013-07-31 17:02:00,76.3,66.6,29.99,South,175,0.0,1.0,72,0.00,,---,0.00,VWS V14.01,2013-07-31 21:02:00,
2013-07-31 17:03:00,76.3,66.6,29.99,South,175,0.0,1.0,72,0.00,,---,0.00,VWS V14.01,2013-07-31 21:03:00,
2013-07-31 17:05:00,76.3,66.6,29.99,South,175,0.0,1.0,72,0.00,,---,0.00,VWS V14.01,2013-07-31 21:05:00,
2013-07-31 17:07:00,76.3,66.6,29.99,South,175,0.0,0.0,72,0.00,,---,0.00,VWS V14.01,2013-07-31 21:07:00,
2013-07-31 17:08:00,76.3,66.6,29.99,South,175,0.0,0.0,72,0.00,,---,0.00,VWS V14.01,2013-07-31 21:08:00,
2013-07-31 17:09:00,76.3,66.6,29.99,South,175,0.0,0.0,72,0.00,,---,0.00,VWS V14.01,2013-07-31 21:09:00,
2013-07-31 17:10:00,76.3,66.6,29.99,South,171,0.0,2.0,72,0.00,,---,0.00,VWS V14.01,2013-07-31 21:10:00,
2013-07-31 17:12:00,76.3,66.2,29.99,South,172,0.0,0.0,71,0.00,,---,0.00,VWS V14.01,2013-07-31 21:12:00,
2013-07-31 17:13:00,76.3,65.8,29.99,South,171,0.0,0.0,70,0.00,,---,0.00,VWS V14.01,2013-07-31 21:13:00,
2013-07-31 17:14:00,76.3,65.8,29.99,South,171,0.0,1.0,70,0.00,,---,0.00,VWS V14.01,2013-07-31 21:14:00,
2013-07-31 17:15:00,76.3,65.8,29.99,South,171,0.0,0.0,70,0.00,,---,0.00,VWS V14.01,2013-07-31 21:15:00,
2013-07-31 17:17:00,76.3,66.2,29.99,South,171,0.0,1.0,71,0.00,,---,0.00,VWS V14.01,2013-07-31 21:17:00,
2013-07-31 17:18:00,76.3,66.2,29.99,South,171,0.0,1.0,71,0.00,,---,0.00,VWS V14.01,2013-07-31 21:18:00,
2013-07-31 17:19:00,76.3,66.2,29.99,South,171,0.0,0.0,71,0.00,,---,0.00,VWS V14.01,2013-07-31 21:19:00,
2013-07-31 17:20:00,76.3,66.2,29.99,South,172,0.0,1.0,71,0.00,,---,0.00,VWS V14.01,2013-07-31 21:20:00,
2013-07-31 17:23:00,76.5,66.8,29.99,South,172,0.0,2.0,72,0.00,,---,0.00,VWS V14.01,2013-07-31 21:23:00,
2013-07-31 17:24:00,76.5,66.8,29.99,South,171,0.0,0.0,72,0.00,,---,0.00,VWS V14.01,2013-07-31 21:24:00,
2013-07-31 17:25:00,76.5,66.8,29.99,South,171,0.0,0.0,72,0.00,,---,0.00,VWS V14.01,2013-07-31 21:25:00,
2013-07-31 17:28:00,76.5,66.4,29.99,South,172,1.0,2.0,71,0.00,,---,0.00,VWS V14.01,2013-07-31 21:28:00,
2013-07-31 17:29:00,76.5,66.4,29.99,South,171,2.0,2.0,71,0.00,,---,0.00,VWS V14.01,2013-07-31 21:29:00,
2013-07-31 17:30:00,76.5,66.4,29.99,SSW,193,2.0,5.0,71,0.00,,---,0.00,VWS V14.01,2013-07-31 21:30:00,
2013-07-31 17:33:00,76.7,67.0,29.98,SSW,213,1.0,1.0,72,0.00,,---,0.00,VWS V14.01,2013-07-31 21:33:00,
2013-07-31 17:34:00,76.7,67.0,29.98,SSW,206,4.0,5.0,72,0.00,,---,0.00,VWS V14.01,2013-07-31 21:34:00,
2013-07-31 17:35:00,76.7,67.4,29.98,SSW,206,0.0,2.0,73,0.00,,---,0.00,VWS V14.01,2013-07-31 21:35:00,
2013-07-31 17:38:00,76.8,67.1,29.98,SSW,206,0.0,0.0,72,0.00,,---,0.00,VWS V14.01,2013-07-31 21:38:00,
2013-07-31 17:39:00,76.8,67.1,29.98,SSW,206,0.0,0.0,72,0.00,,---,0.00,VWS V14.01,2013-07-31 21:39:00,
2013-07-31 17:40:00,76.8,67.1,29.98,SSW,206,0.0,0.0,72,0.00,,---,0.00,VWS V14.01,2013-07-31 21:40:00,
2013-07-31 17:43:00,76.8,67.1,29.98,SSW,206,0.0,0.0,72,0.00,,---,0.00,VWS V14.01,2013-07-31 21:43:00,
2013-07-31 17:44:00,76.8,67.1,29.98,SSW,206,0.0,0.0,72,0.00,,---,0.00,VWS V14.01,2013-07-31 21:44:00,
2013-07-31 17:46:00,76.8,67.1,29.98,SSW,206,0.0,0.0,72,0.00,,---,0.00,VWS V14.01,2013-07-31 21:46:00,
2013-07-31 17:48:00,76.8,66.7,29.98,SSW,206,0.0,1.0,71,0.00,,---,0.00,VWS V14.01,2013-07-31 21:48:00,
2013-07-31 17:49:00,76.8,66.7,29.98,SSW,196,0.0,0.0,71,0.00,,---,0.00,VWS V14.01,2013-07-31 21:49:00,
2013-07-31 17:51:00,76.8,66.3,29.98,SSW,196,0.0,0.0,70,0.00,,---,0.00,VWS V14.01,2013-07-31 21:51:00,
2013-07-31 17:53:00,76.8,66.7,29.98,SSW,196,0.0,0.0,71,0.00,,---,0.00,VWS V14.01,2013-07-31 21:53:00,
2013-07-31 17:54:00,76.8,66.3,29.98,SSW,196,0.0,0.0,70,0.00,,---,0.00,VWS V14.01,2013-07-31 21:54:00,
2013-07-31 17:56:00,76.8,66.3,29.98,SSW,196,0.0,0.0,70,0.00,,---,0.00,VWS V14.01,2013-07-31 21:56:00,
2013-07-31 17:58:00,77.0,66.9,29.98,SSW,196,0.0,0.0,71,0.00,,---,0.00,VWS V14.01,2013-07-31 21:58:00,
2013-07-31 17:59:00,77.0,66.9,29.98,SSW,196,0.0,2.0,71,0.00,,---,0.00,VWS V14.01,2013-07-31 21:59:00,
2013-07-31 18:01:00,77.0,66.9,29.98,SSW,196,0.0,0.0,71,0.00,,---,0.00,VWS V14.01,2013-07-31 22:01:00,
2013-07-31 18:03:00,77.0,66.9,29.97,SSW,196,0.0,0.0,71,0.00,,---,0.00,VWS V14.01,2013-07-31 22:03:00,
2013-07-31 18:04:00,77.0,66.9,29.97,SSW,196,0.0,1.0,71,0.00,,---,0.00,VWS V14.01,2013-07-31 22:04:00,
2013-07-31 18:07:00,77.0,66.9,29.97,SSW,196,0.0,1.0,71,0.00,,---,0.00,VWS V14.01,2013-07-31 22:07:00,
2013-07-31 18:08:00,77.0,66.9,29.97,SSW,196,0.0,0.0,71,0.00,,---,0.00,VWS V14.01,2013-07-31 22:08:00,
2013-07-31 18:09:00,77.0,66.9,29.97,SSW,196,0.0,1.0,71,0.00,,---,0.00,VWS V14.01,2013-07-31 22:09:00,
2013-07-31 18:12:00,76.8,67.1,29.97,South,179,0.0,0.0,72,0.00,,---,0.00,VWS V14.01,2013-07-31 22:12:00,
2013-07-31 18:13:00,76.8,66.7,29.97,South,179,0.0,0.0,71,0.00,,---,0.00,VWS V14.01,2013-07-31 22:13:00,
2013-07-31 18:14:00,76.8,66.7,29.97,South,179,0.0,0.0,71,0.00,,---,0.00,VWS V14.01,2013-07-31 22:14:00,
2013-07-31 18:15:00,76.8,66.7,29.97,South,179,0.0,0.0,71,0.00,,---,0.00,VWS V14.01,2013-07-31 22:15:00,
2013-07-31 18:17:00,76.8,67.1,29.97,South,179,0.0,1.0,72,0.00,,---,0.00,VWS V14.01,2013-07-31 22:17:00,
2013-07-31 18:19:00,76.8,67.1,29.97,South,179,0.0,0.0,72,0.00,,---,0.00,VWS V14.01,2013-07-31 22:19:00,
2013-07-31 18:20:00,76.8,67.1,29.97,South,179,0.0,0.0,72,0.00,,---,0.00,VWS V14.01,2013-07-31 22:20:00,
2013-07-31 18:22:00,76.8,67.1,29.97,South,179,0.0,0.0,72,0.00,,---,0.00,VWS V14.01,2013-07-31 22:22:00,
2013-07-31 18:24:00,76.7,67.0,29.97,South,179,0.0,0.0,72,0.00,,---,0.00,VWS V14.01,2013-07-31 22:24:00,
2013-07-31 18:25:00,76.7,67.0,29.97,South,179,0.0,1.0,72,0.00,,---,0.00,VWS V14.01,2013-07-31 22:25:00,
2013-07-31 18:27:00,76.7,67.0,29.97,South,179,0.0,0.0,72,0.00,,---,0.00,VWS V14.01,2013-07-31 22:27:00,
2013-07-31 18:29:00,76.7,67.0,29.97,South,179,0.0,0.0,72,0.00,,---,0.00,VWS V14.01,2013-07-31 22:29:00,
2013-07-31 18:30:00,76.7,67.0,29.97,South,179,0.0,0.0,72,0.00,,---,0.00,VWS V14.01,2013-07-31 22:30:00,
2013-07-31 18:32:00,76.5,67.2,29.97,South,179,0.0,0.0,73,0.00,,---,0.00,VWS V14.01,2013-07-31 22:32:00,
2013-07-31 18:34:00,76.5,67.2,29.96,South,179,0.0,0.0,73,0.00,,---,0.00,VWS V14.01,2013-07-31 22:34:00,
2013-07-31 18:35:00,76.5,67.2,29.96,South,179,0.0,2.0,73,0.00,,---,0.00,VWS V14.01,2013-07-31 22:35:00,
2013-07-31 18:37:00,76.5,67.2,29.96,SSE,155,0.0,0.0,73,0.00,,---,0.00,VWS V14.01,2013-07-31 22:37:00,
2013-07-31 18:39:00,76.3,67.4,29.96,SSE,157,0.0,0.0,74,0.00,,---,0.00,VWS V14.01,2013-07-31 22:39:00,
2013-07-31 18:40:00,76.3,67.4,29.96,SE,145,6.0,6.0,74,0.00,,---,0.00,VWS V14.01,2013-07-31 22:40:00,
2013-07-31 18:42:00,76.1,67.2,29.96,SSE,161,3.0,10.0,74,0.00,,---,0.00,VWS V14.01,2013-07-31 22:42:00,
2013-07-31 18:44:00,75.8,66.1,29.96,South,178,11.0,11.0,72,0.00,,---,0.00,VWS V14.01,2013-07-31 22:44:00,
2013-07-31 18:45:00,75.8,66.1,29.96,SSE,155,14.0,14.0,72,0.00,,---,0.00,VWS V14.01,2013-07-31 22:45:00,
2013-07-31 18:47:00,75.3,65.7,29.98,SSW,205,4.0,10.0,72,0.00,,---,0.00,VWS V14.01,2013-07-31 22:47:00,
2013-07-31 18:49:00,74.9,65.7,29.98,SSW,213,2.0,2.0,73,0.00,,---,0.00,VWS V14.01,2013-07-31 22:49:00,
2013-07-31 18:50:00,74.9,65.7,29.98,South,183,7.0,9.0,73,0.00,,---,0.00,VWS V14.01,2013-07-31 22:50:00,
2013-07-31 18:52:00,74.6,65.4,29.98,WSW,246,11.0,15.0,73,0.00,,---,0.00,VWS V14.01,2013-07-31 22:52:00,
2013-07-31 18:54:00,74.0,65.6,29.98,SSW,200,4.0,9.0,75,0.00,,---,0.00,VWS V14.01,2013-07-31 22:54:00,
2013-07-31 18:55:00,74.0,65.6,29.98,South,191,3.0,5.0,75,0.00,,---,0.00,VWS V14.01,2013-07-31 22:55:00,
2013-07-31 18:57:00,73.5,65.5,29.98,SW,234,1.0,16.0,76,0.02,,---,0.02,VWS V14.01,2013-07-31 22:57:00,
2013-07-31 18:59:00,73.2,65.6,29.98,SSW,209,3.0,10.0,77,0.04,,---,0.04,VWS V14.01,2013-07-31 22:59:00,
2013-07-31 19:00:00,73.0,65.7,29.98,SSW,206,6.0,9.0,78,0.04,,---,0.04,VWS V14.01,2013-07-31 23:00:00,
2013-07-31 19:02:00,72.7,65.8,29.98,SW,227,4.0,5.0,79,0.05,,---,0.05,VWS V14.01,2013-07-31 23:02:00,
2013-07-31 19:04:00,72.3,65.4,29.98,SW,223,5.0,12.0,79,0.06,,---,0.06,VWS V14.01,2013-07-31 23:04:00,
2013-07-31 19:05:00,72.3,65.4,29.98,South,181,7.0,12.0,79,0.06,,---,0.06,VWS V14.01,2013-07-31 23:05:00,
2013-07-31 19:07:00,72.0,65.5,29.98,SSW,192,7.0,9.0,80,0.08,,---,0.08,VWS V14.01,2013-07-31 23:07:00,
2013-07-31 19:09:00,71.6,65.5,29.98,SSW,209,10.0,10.0,81,0.10,,---,0.10,VWS V14.01,2013-07-31 23:09:00,
2013-07-31 19:10:00,71.6,65.5,29.98,SW,236,5.0,12.0,81,0.10,,---,0.10,VWS V14.01,2013-07-31 23:10:00,
2013-07-31 19:11:00,71.5,65.4,29.98,SSW,211,7.0,10.0,81,0.11,,---,0.11,VWS V14.01,2013-07-31 23:11:00,
2013-07-31 19:12:00,71.3,65.5,29.98,WSW,245,9.0,13.0,82,0.12,,---,0.12,VWS V14.01,2013-07-31 23:12:00,
2013-07-31 19:14:00,70.9,65.1,29.98,SW,215,5.0,9.0,82,0.14,,---,0.14,VWS V14.01,2013-07-31 23:14:00,
2013-07-31 19:15:00,70.9,65.1,29.98,SW,217,0.0,9.0,82,0.14,,---,0.14,VWS V14.01,2013-07-31 23:15:00,
2013-07-31 19:16:00,70.8,65.4,29.98,SSW,209,3.0,4.0,83,0.15,,---,0.15,VWS V14.01,2013-07-31 23:16:00,
2013-07-31 19:17:00,70.6,65.2,29.98,SSW,199,0.0,0.0,83,0.15,,---,0.16,VWS V14.01,2013-07-31 23:17:00,
2013-07-31 19:19:00,70.4,65.0,29.98,SSW,207,1.0,4.0,83,0.17,,---,0.17,VWS V14.01,2013-07-31 23:19:00,
2013-07-31 19:20:00,70.3,64.9,29.98,SSW,207,0.0,4.0,83,0.17,,---,0.17,VWS V14.01,2013-07-31 23:20:00,
2013-07-31 19:21:00,70.3,65.2,29.98,SSW,205,5.0,7.0,84,0.18,,---,0.18,VWS V14.01,2013-07-31 23:21:00,
2013-07-31 19:22:00,70.1,65.1,29.98,SSW,192,0.0,0.0,84,0.19,,---,0.19,VWS V14.01,2013-07-31 23:22:00,
2013-07-31 19:25:00,69.9,64.8,29.98,SW,219,0.0,5.0,84,0.20,,---,0.20,VWS V14.01,2013-07-31 23:25:00,
2013-07-31 19:26:00,69.8,65.1,29.98,South,190,5.0,10.0,85,0.21,,---,0.21,VWS V14.01,2013-07-31 23:26:00,
2013-07-31 19:28:00,69.6,64.9,29.98,South,190,3.0,3.0,85,0.22,,---,0.22,VWS V14.01,2013-07-31 23:28:00,
2013-07-31 19:30:00,69.6,64.9,29.98,SSW,205,3.0,4.0,85,0.23,,---,0.23,VWS V14.01,2013-07-31 23:30:00,
2013-07-31 19:32:00,69.4,65.0,29.98,South,189,0.0,1.0,86,0.23,,---,0.23,VWS V14.01,2013-07-31 23:32:00,
2013-07-31 19:33:00,69.3,64.9,29.98,South,189,0.0,2.0,86,0.24,,---,0.24,VWS V14.01,2013-07-31 23:33:00,
2013-07-31 19:35:00,69.1,64.7,29.98,South,189,0.0,0.0,86,0.24,,---,0.24,VWS V14.01,2013-07-31 23:35:00,
2013-07-31 19:37:00,69.1,64.7,29.98,South,189,0.0,0.0,86,0.24,,---,0.24,VWS V14.01,2013-07-31 23:37:00,
2013-07-31 19:38:00,69.1,64.7,29.98,South,189,0.0,0.0,86,0.24,,---,0.24,VWS V14.01,2013-07-31 23:38:00,
2013-07-31 19:40:00,68.9,64.6,29.98,South,189,0.0,0.0,86,0.24,,---,0.24,VWS V14.01,2013-07-31 23:40:00,
2013-07-31 19:42:00,68.8,64.8,29.98,South,189,0.0,0.0,87,0.24,,---,0.24,VWS V14.01,2013-07-31 23:42:00,
2013-07-31 19:43:00,68.8,64.8,29.98,South,189,0.0,0.0,87,0.24,,---,0.24,VWS V14.01,2013-07-31 23:43:00,
2013-07-31 19:45:00,68.8,64.8,29.98,South,189,0.0,0.0,87,0.24,,---,0.24,VWS V14.01,2013-07-31 23:45:00,
2013-07-31 19:47:00,68.6,64.6,29.97,South,189,0.0,0.0,87,0.24,,---,0.24,VWS V14.01,2013-07-31 23:47:00,
2013-07-31 19:48:00,68.6,64.6,29.97,South,189,0.0,0.0,87,0.24,,---,0.24,VWS V14.01,2013-07-31 23:48:00,
2013-07-31 19:50:00,68.4,64.4,29.97,South,189,0.0,0.0,87,0.24,,---,0.24,VWS V14.01,2013-07-31 23:50:00,
2013-07-31 19:53:00,68.4,64.7,29.97,South,189,0.0,0.0,88,0.25,,---,0.25,VWS V14.01,2013-07-31 23:53:00,
2013-07-31 19:55:00,68.4,64.7,29.97,South,189,0.0,0.0,88,0.25,,---,0.25,VWS V14.01,2013-07-31 23:55:00,
2013-07-31 19:58:00,68.3,64.6,29.97,South,189,0.0,0.0,88,0.23,,---,0.25,VWS V14.01,2013-07-31 23:58:00,
2013-07-31 20:00:00,68.3,64.6,29.97,South,189,0.0,0.0,88,0.21,,---,0.25,VWS V14.01,2013-08-01 00:00:00,
2013-07-31 20:01:00,68.3,64.6,29.97,South,189,0.0,0.0,88,0.21,,---,0.25,VWS V14.01,2013-08-01 00:01:00,
2013-07-31 20:03:00,68.1,64.7,29.97,South,189,0.0,0.0,89,0.20,,---,0.25,VWS V14.01,2013-08-01 00:03:00,
2013-07-31 20:05:00,68.1,64.7,29.97,South,189,0.0,0.0,89,0.19,,---,0.25,VWS V14.01,2013-08-01 00:05:00,
2013-07-31 20:06:00,68.1,64.7,29.97,South,189,0.0,0.0,89,0.19,,---,0.25,VWS V14.01,2013-08-01 00:06:00,
2013-07-31 20:08:00,68.1,64.7,29.97,South,189,0.0,0.0,89,0.17,,---,0.25,VWS V14.01,2013-08-01 00:08:00,
2013-07-31 20:10:00,67.9,64.5,29.97,South,189,0.0,0.0,89,0.15,,---,0.25,VWS V14.01,2013-08-01 00:10:00,
2013-07-31 20:11:00,67.9,64.5,29.97,South,189,0.0,0.0,89,0.15,,---,0.25,VWS V14.01,2013-08-01 00:11:00,
2013-07-31 20:13:00,67.9,64.5,29.97,South,189,0.0,0.0,89,0.12,,---,0.25,VWS V14.01,2013-08-01 00:13:00,
2013-07-31 20:15:00,67.8,64.4,29.97,South,189,0.0,0.0,89,0.11,,---,0.25,VWS V14.01,2013-08-01 00:15:00,
2013-07-31 20:16:00,67.8,64.4,29.97,South,189,0.0,0.0,89,0.10,,---,0.25,VWS V14.01,2013-08-01 00:16:00,
2013-07-31 20:18:00,67.8,64.4,29.97,South,189,0.0,0.0,89,0.09,,---,0.25,VWS V14.01,2013-08-01 00:18:00,
2013-07-31 20:20:00,67.8,64.4,29.97,South,189,0.0,1.0,89,0.08,,---,0.25,VWS V14.01,2013-08-01 00:20:00,
2013-07-31 20:21:00,67.8,64.4,29.97,South,189,0.0,0.0,89,0.07,,---,0.25,VWS V14.01,2013-08-01 00:21:00,
2013-07-31 20:23:00,67.8,64.8,29.97,South,189,0.0,0.0,90,0.06,,---,0.25,VWS V14.01,2013-08-01 00:23:00,
2013-07-31 20:26:00,67.6,64.6,29.97,South,189,0.0,0.0,90,0.05,,---,0.25,VWS V14.01,2013-08-01 00:26:00,
2013-07-31 20:28:00,67.6,64.6,29.97,South,189,0.0,0.0,90,0.03,,---,0.25,VWS V14.01,2013-08-01 00:28:00,
2013-07-31 20:31:00,67.6,64.6,29.97,South,189,0.0,0.0,90,0.02,,---,0.25,VWS V14.01,2013-08-01 00:31:00,
2013-07-31 20:33:00,67.6,64.6,29.96,South,188,0.0,3.0,90,0.01,,---,0.25,VWS V14.01,2013-08-01 00:33:00,
2013-07-31 20:36:00,67.4,64.4,29.96,South,188,0.0,0.0,90,0.01,,---,0.25,VWS V14.01,2013-08-01 00:36:00,
2013-07-31 20:38:00,67.4,64.7,29.96,South,188,0.0,0.0,91,0.01,,---,0.25,VWS V14.01,2013-08-01 00:38:00,
2013-07-31 20:39:00,67.4,64.7,29.96,South,188,0.0,1.0,91,0.01,,---,0.25,VWS V14.01,2013-08-01 00:39:00,
2013-07-31 20:41:00,67.4,64.7,29.96,South,188,1.0,1.0,91,0.01,,---,0.25,VWS V14.01,2013-08-01 00:41:00,
2013-07-31 20:42:00,67.4,64.7,29.96,South,188,0.0,0.0,91,0.01,,---,0.25,VWS V14.01,2013-08-01 00:42:00,
2013-07-31 20:43:00,67.3,64.6,29.96,South,188,0.0,0.0,91,0.01,,---,0.25,VWS V14.01,2013-08-01 00:43:00,
2013-07-31 20:44:00,67.3,64.6,29.96,South,188,0.0,0.0,91,0.01,,---,0.25,VWS V14.01,2013-08-01 00:44:00,
2013-07-31 20:47:00,67.3,64.6,29.96,South,188,0.0,0.0,91,0.01,,---,0.25,VWS V14.01,2013-08-01 00:47:00,
2013-07-31 20:48:00,67.3,64.6,29.96,South,188,0.0,1.0,91,0.01,,---,0.25,VWS V14.01,2013-08-01 00:48:00,
2013-07-31 20:49:00,67.3,64.6,29.96,South,188,0.0,0.0,91,0.01,,---,0.25,VWS V14.01,2013-08-01 00:49:00,
2013-07-31 20:52:00,67.3,64.6,29.96,South,188,0.0,0.0,91,0.01,,---,0.25,VWS V14.01,2013-08-01 00:52:00,
2013-07-31 20:53:00,67.1,64.4,29.96,South,188,0.0,0.0,91,0.00,,---,0.25,VWS V14.01,2013-08-01 00:53:00,
2013-07-31 20:54:00,67.1,64.4,29.96,South,188,0.0,2.0,91,0.00,,---,0.25,VWS V14.01,2013-08-01 00:54:00,
2013-07-31 20:57:00,67.1,64.7,29.96,South,188,0.0,1.0,92,0.00,,---,0.25,VWS V14.01,2013-08-01 00:57:00,
2013-07-31 20:58:00,67.1,64.7,29.96,South,188,0.0,0.0,92,0.00,,---,0.25,VWS V14.01,2013-08-01 00:58:00,
2013-07-31 20:59:00,67.1,64.7,29.96,South,188,0.0,0.0,92,0.00,,---,0.25,VWS V14.01,2013-08-01 00:59:00,
2013-07-31 21:02:00,67.1,64.7,29.96,South,188,0.0,0.0,92,0.00,,---,0.25,VWS V14.01,2013-08-01 01:02:00,
2013-07-31 21:03:00,67.1,64.7,29.96,South,188,0.0,0.0,92,0.00,,---,0.25,VWS V14.01,2013-08-01 01:03:00,
2013-07-31 21:04:00,67.1,64.7,29.96,South,188,0.0,0.0,92,0.00,,---,0.25,VWS V14.01,2013-08-01 01:04:00,
2013-07-31 21:08:00,66.9,64.5,29.96,South,188,0.0,0.0,92,0.00,,---,0.25,VWS V14.01,2013-08-01 01:08:00,
2013-07-31 21:09:00,66.9,64.5,29.96,South,188,0.0,0.0,92,0.00,,---,0.25,VWS V14.01,2013-08-01 01:09:00,
2013-07-31 21:13:00,66.9,64.5,29.96,South,188,0.0,1.0,92,0.00,,---,0.25,VWS V14.01,2013-08-01 01:13:00,
2013-07-31 21:14:00,66.9,64.5,29.96,South,188,0.0,0.0,92,0.00,,---,0.25,VWS V14.01,2013-08-01 01:14:00,
2013-07-31 21:18:00,66.9,64.8,29.96,South,188,0.0,0.0,93,0.00,,---,0.25,VWS V14.01,2013-08-01 01:18:00,
2013-07-31 21:19:00,66.9,64.8,29.96,South,188,0.0,0.0,93,0.00,,---,0.25,VWS V14.01,2013-08-01 01:19:00,
2013-07-31 21:23:00,66.8,64.7,29.96,South,188,0.0,0.0,93,0.00,,---,0.25,VWS V14.01,2013-08-01 01:23:00,
2013-07-31 21:24:00,66.8,64.7,29.96,South,188,0.0,0.0,93,0.00,,---,0.25,VWS V14.01,2013-08-01 01:24:00,
2013-07-31 21:28:00,66.8,64.7,29.96,South,188,0.0,2.0,93,0.00,,---,0.25,VWS V14.01,2013-08-01 01:28:00,
2013-07-31 21:29:00,66.8,64.7,29.96,South,188,3.0,5.0,93,0.00,,---,0.25,VWS V14.01,2013-08-01 01:29:00,
2013-07-31 21:33:00,66.8,64.7,29.96,South,188,0.0,0.0,93,0.00,,---,0.25,VWS V14.01,2013-08-01 01:33:00,
2013-07-31 21:34:00,66.8,64.7,29.96,South,188,0.0,0.0,93,0.00,,---,0.25,VWS V14.01,2013-08-01 01:34:00,
2013-07-31 21:38:00,66.8,64.7,29.96,South,188,0.0,2.0,93,0.00,,---,0.25,VWS V14.01,2013-08-01 01:38:00,
2013-07-31 21:39:00,66.8,64.7,29.96,South,188,0.0,2.0,93,0.00,,---,0.25,VWS V14.01,2013-08-01 01:39:00,
2013-07-31 21:43:00,66.6,64.5,29.96,South,169,0.0,1.0,93,0.00,,---,0.25,VWS V14.01,2013-08-01 01:43:00,
2013-07-31 21:44:00,66.6,64.8,29.96,South,173,0.0,4.0,94,0.00,,---,0.25,VWS V14.01,2013-08-01 01:44:00,
2013-07-31 21:48:00,66.6,64.8,29.96,South,173,0.0,0.0,94,0.00,,---,0.25,VWS V14.01,2013-08-01 01:48:00,
2013-07-31 21:49:00,66.6,64.8,29.96,South,173,0.0,0.0,94,0.00,,---,0.25,VWS V14.01,2013-08-01 01:49:00,
2013-07-31 21:50:00,66.6,64.8,29.96,South,173,2.0,2.0,94,0.00,,---,0.25,VWS V14.01,2013-08-01 01:50:00,
2013-07-31 21:53:00,66.6,64.8,29.96,South,173,0.0,0.0,94,0.00,,---,0.25,VWS V14.01,2013-08-01 01:53:00,
2013-07-31 21:54:00,66.6,64.8,29.96,South,173,0.0,0.0,94,0.00,,---,0.25,VWS V14.01,2013-08-01 01:54:00,
2013-07-31 21:55:00,66.6,64.8,29.96,South,173,0.0,0.0,94,0.00,,---,0.25,VWS V14.01,2013-08-01 01:55:00,
2013-07-31 21:58:00,66.6,64.8,29.96,South,173,0.0,0.0,94,0.00,,---,0.25,VWS V14.01,2013-08-01 01:58:00,
2013-07-31 21:59:00,66.4,64.6,29.96,South,173,0.0,0.0,94,0.00,,---,0.25,VWS V14.01,2013-08-01 01:59:00,
2013-07-31 22:00:00,66.4,64.6,29.96,South,173,0.0,0.0,94,0.00,,---,0.25,VWS V14.01,2013-08-01 02:00:00,
2013-07-31 22:03:00,66.4,64.6,29.96,South,173,0.0,0.0,94,0.00,,---,0.25,VWS V14.01,2013-08-01 02:03:00,
2013-07-31 22:04:00,66.4,64.6,29.96,South,173,0.0,0.0,94,0.00,,---,0.25,VWS V14.01,2013-08-01 02:04:00,
2013-07-31 22:05:00,66.4,64.6,29.96,South,173,0.0,0.0,94,0.00,,---,0.25,VWS V14.01,2013-08-01 02:05:00,
2013-07-31 22:08:00,66.4,64.6,29.96,South,173,0.0,0.0,94,0.00,,---,0.25,VWS V14.01,2013-08-01 02:08:00,
2013-07-31 22:09:00,66.4,64.6,29.96,South,173,0.0,0.0,94,0.00,,---,0.25,VWS V14.01,2013-08-01 02:09:00,
2013-07-31 22:10:00,66.4,64.6,29.96,South,173,0.0,0.0,94,0.00,,---,0.25,VWS V14.01,2013-08-01 02:10:00,
2013-07-31 22:13:00,66.4,64.6,29.96,South,173,0.0,0.0,94,0.00,,---,0.25,VWS V14.01,2013-08-01 02:13:00,
2013-07-31 22:14:00,66.4,64.6,29.96,South,173,0.0,0.0,94,0.00,,---,0.25,VWS V14.01,2013-08-01 02:14:00,
2013-07-31 22:15:00,66.4,64.6,29.96,South,173,0.0,0.0,94,0.00,,---,0.25,VWS V14.01,2013-08-01 02:15:00,
2013-07-31 22:18:00,66.4,64.6,29.96,South,173,0.0,0.0,94,0.00,,---,0.25,VWS V14.01,2013-08-01 02:18:00,
2013-07-31 22:19:00,66.4,64.6,29.96,South,173,0.0,0.0,94,0.00,,---,0.25,VWS V14.01,2013-08-01 02:19:00,
2013-07-31 22:20:00,66.4,64.6,29.96,South,173,0.0,0.0,94,0.00,,---,0.25,VWS V14.01,2013-08-01 02:20:00,
2013-07-31 22:23:00,66.4,64.6,29.96,South,173,0.0,0.0,94,0.00,,---,0.25,VWS V14.01,2013-08-01 02:23:00,
2013-07-31 22:24:00,66.4,64.9,29.96,South,173,0.0,0.0,95,0.00,,---,0.25,VWS V14.01,2013-08-01 02:24:00,
2013-07-31 22:25:00,66.4,64.9,29.96,South,171,3.0,3.0,95,0.00,,---,0.25,VWS V14.01,2013-08-01 02:25:00,
2013-07-31 22:28:00,66.4,64.9,29.96,South,171,0.0,0.0,95,0.00,,---,0.25,VWS V14.01,2013-08-01 02:28:00,
2013-07-31 22:29:00,66.4,64.9,29.96,South,171,0.0,0.0,95,0.00,,---,0.25,VWS V14.01,2013-08-01 02:29:00,
2013-07-31 22:30:00,66.4,64.9,29.96,South,171,0.0,2.0,95,0.00,,---,0.25,VWS V14.01,2013-08-01 02:30:00,
2013-07-31 22:33:00,66.4,64.9,29.96,South,169,0.0,3.0,95,0.00,,---,0.25,VWS V14.01,2013-08-01 02:33:00,
2013-07-31 22:34:00,66.4,64.9,29.96,South,169,0.0,1.0,95,0.00,,---,0.25,VWS V14.01,2013-08-01 02:34:00,
2013-07-31 22:35:00,66.4,64.9,29.96,SSE,167,1.0,1.0,95,0.00,,---,0.25,VWS V14.01,2013-08-01 02:35:00,
2013-07-31 22:38:00,66.4,64.9,29.96,SSE,167,0.0,1.0,95,0.00,,---,0.25,VWS V14.01,2013-08-01 02:38:00,
2013-07-31 22:39:00,66.4,65.2,29.96,SSE,167,0.0,1.0,96,0.00,,---,0.25,VWS V14.01,2013-08-01 02:39:00,
2013-07-31 22:40:00,66.4,65.2,29.96,SSE,167,0.0,1.0,96,0.00,,---,0.25,VWS V14.01,2013-08-01 02:40:00,
2013-07-31 22:43:00,66.4,65.2,29.96,South,175,0.0,1.0,96,0.00,,---,0.25,VWS V14.01,2013-08-01 02:43:00,
2013-07-31 22:44:00,66.4,65.2,29.96,South,175,0.0,1.0,96,0.00,,---,0.25,VWS V14.01,2013-08-01 02:44:00,
2013-07-31 22:45:00,66.4,65.2,29.96,South,175,0.0,0.0,96,0.00,,---,0.25,VWS V14.01,2013-08-01 02:45:00,
2013-07-31 22:48:00,66.4,65.2,29.96,South,175,0.0,0.0,96,0.00,,---,0.25,VWS V14.01,2013-08-01 02:48:00,
2013-07-31 22:49:00,66.4,65.2,29.96,South,175,0.0,0.0,96,0.00,,---,0.25,VWS V14.01,2013-08-01 02:49:00,
2013-07-31 22:50:00,66.4,65.2,29.96,South,175,0.0,1.0,96,0.00,,---,0.25,VWS V14.01,2013-08-01 02:50:00,
2013-07-31 22:51:00,66.4,65.2,29.96,South,175,0.0,1.0,96,0.00,,---,0.25,VWS V14.01,2013-08-01 02:51:00,
2013-07-31 22:54:00,66.4,65.2,29.96,South,175,0.0,0.0,96,0.00,,---,0.25,VWS V14.01,2013-08-01 02:54:00,
2013-07-31 22:55:00,66.4,65.2,29.96,South,175,0.0,0.0,96,0.00,,---,0.25,VWS V14.01,2013-08-01 02:55:00,
2013-07-31 22:56:00,66.4,65.2,29.96,South,175,0.0,0.0,96,0.00,,---,0.25,VWS V14.01,2013-08-01 02:56:00,
2013-07-31 22:59:00,66.4,65.2,29.96,South,175,0.0,0.0,96,0.00,,---,0.25,VWS V14.01,2013-08-01 02:59:00,
2013-07-31 23:00:00,66.4,65.2,29.96,South,175,0.0,0.0,96,0.00,,---,0.25,VWS V14.01,2013-08-01 03:00:00,
2013-07-31 23:01:00,66.4,65.2,29.96,South,175,0.0,0.0,96,0.00,,---,0.25,VWS V14.01,2013-08-01 03:01:00,
2013-07-31 23:04:00,66.3,65.1,29.96,South,175,0.0,0.0,96,0.00,,---,0.25,VWS V14.01,2013-08-01 03:04:00,
2013-07-31 23:05:00,66.3,65.1,29.96,South,175,0.0,0.0,96,0.00,,---,0.25,VWS V14.01,2013-08-01 03:05:00,
2013-07-31 23:06:00,66.3,65.1,29.96,South,175,0.0,0.0,96,0.00,,---,0.25,VWS V14.01,2013-08-01 03:06:00,
2013-07-31 23:09:00,66.3,65.1,29.96,South,175,0.0,0.0,96,0.00,,---,0.25,VWS V14.01,2013-08-01 03:09:00,
2013-07-31 23:10:00,66.3,65.1,29.96,South,175,0.0,0.0,96,0.00,,---,0.25,VWS V14.01,2013-08-01 03:10:00,
2013-07-31 23:11:00,66.3,65.1,29.96,South,175,0.0,0.0,96,0.00,,---,0.25,VWS V14.01,2013-08-01 03:11:00,
2013-07-31 23:14:00,66.3,65.1,29.96,South,175,0.0,0.0,96,0.00,,---,0.25,VWS V14.01,2013-08-01 03:14:00,
2013-07-31 23:15:00,66.3,65.1,29.96,South,175,0.0,0.0,96,0.00,,---,0.25,VWS V14.01,2013-08-01 03:15:00,
2013-07-31 23:16:00,66.3,65.1,29.96,South,169,1.0,3.0,96,0.00,,---,0.25,VWS V14.01,2013-08-01 03:16:00,
2013-07-31 23:19:00,66.3,65.1,29.95,South,169,0.0,0.0,96,0.00,,---,0.25,VWS V14.01,2013-08-01 03:19:00,
2013-07-31 23:20:00,66.3,65.1,29.95,South,169,0.0,0.0,96,0.00,,---,0.25,VWS V14.01,2013-08-01 03:20:00,
2013-07-31 23:21:00,66.3,65.1,29.95,South,169,0.0,0.0,96,0.00,,---,0.25,VWS V14.01,2013-08-01 03:21:00,
2013-07-31 23:24:00,66.3,65.1,29.95,South,169,0.0,0.0,96,0.00,,---,0.25,VWS V14.01,2013-08-01 03:24:00,
2013-07-31 23:25:00,66.3,65.1,29.95,South,169,0.0,0.0,96,0.00,,---,0.25,VWS V14.01,2013-08-01 03:25:00,
2013-07-31 23:26:00,66.3,65.1,29.95,South,169,0.0,0.0,96,0.00,,---,0.25,VWS V14.01,2013-08-01 03:26:00,
2013-07-31 23:29:00,66.1,64.9,29.95,South,169,0.0,0.0,96,0.00,,---,0.25,VWS V14.01,2013-08-01 03:29:00,
2013-07-31 23:30:00,66.1,64.9,29.95,South,169,0.0,0.0,96,0.00,,---,0.25,VWS V14.01,2013-08-01 03:30:00,
2013-07-31 23:31:00,66.1,64.9,29.95,South,169,0.0,0.0,96,0.00,,---,0.25,VWS V14.01,2013-08-01 03:31:00,
2013-07-31 23:32:00,66.1,64.9,29.95,South,169,0.0,0.0,96,0.00,,---,0.25,VWS V14.01,2013-08-01 03:32:00,
2013-07-31 23:34:00,66.1,64.9,29.95,South,169,0.0,0.0,96,0.00,,---,0.25,VWS V14.01,2013-08-01 03:34:00,
2013-07-31 23:35:00,66.1,64.9,29.95,South,169,0.0,0.0,96,0.00,,---,0.25,VWS V14.01,2013-08-01 03:35:00,
2013-07-31 23:36:00,66.1,64.9,29.95,South,169,0.0,0.0,96,0.00,,---,0.25,VWS V14.01,2013-08-01 03:36:00,
2013-07-31 23:37:00,66.1,64.9,29.95,South,169,0.0,0.0,96,0.00,,---,0.25,VWS V14.01,2013-08-01 03:37:00,
2013-07-31 23:39:00,66.1,64.9,29.95,South,169,0.0,0.0,96,0.00,,---,0.25,VWS V14.01,2013-08-01 03:39:00,
2013-07-31 23:40:00,66.1,64.9,29.95,South,169,0.0,0.0,96,0.00,,---,0.25,VWS V14.01,2013-08-01 03:40:00,
2013-07-31 23:42:00,66.1,64.9,29.95,South,169,0.0,0.0,96,0.00,,---,0.25,VWS V14.01,2013-08-01 03:42:00,
2013-07-31 23:44:00,66.1,64.9,29.95,South,172,1.0,4.0,96,0.00,,---,0.25,VWS V14.01,2013-08-01 03:44:00,
2013-07-31 23:45:00,66.1,64.9,29.95,South,172,0.0,0.0,96,0.00,,---,0.25,VWS V14.01,2013-08-01 03:45:00,
2013-07-31 23:47:00,66.1,64.9,29.95,SSW,192,0.0,0.0,96,0.00,,---,0.25,VWS V14.01,2013-08-01 03:47:00,
2013-07-31 23:50:00,66.1,64.9,29.95,SSW,192,0.0,2.0,96,0.00,,---,0.25,VWS V14.01,2013-08-01 03:50:00,
2013-07-31 23:52:00,66.1,64.9,29.95,SSW,192,0.0,2.0,96,0.00,,---,0.25,VWS V14.01,2013-08-01 03:52:00,
2013-07-31 23:55:00,66.1,64.9,29.95,SSW,192,0.0,1.0,96,0.00,,---,0.25,VWS V14.01,2013-08-01 03:55:00,
2013-07-31 23:56:00,66.1,64.9,29.95,SSW,192,0.0,0.0,96,0.00,,---,0.25,VWS V14.01,2013-08-01 03:56:00,
2013-07-31 23:57:00,66.1,64.9,29.95,SSW,192,0.0,0.0,96,0.00,,---,0.25,VWS V14.01,2013-08-01 03:57:00,